DLH646 UAAA-EDDF
Flight info
| Callsign | DLH646 |
|---|---|
| Flight time | 7h 43m |
| Altitude | 36000 |
| Route | EKLAT Z370 TOMGO M610 ARBOL Z621 GENDI N147 OTBOR/N0481F360 A480 TIMGA B476 METKA/N0480F380 L88 RASAM N199 EDATA M11 REBLO UR317 TBN UW71 CRM UL746 ODERO DCT OPT/N0468F400 DCT TEGRI DCT GAZDA DCT ARSIN DCT SITNI DCT SUBEN DCT AKINI T161 DEBHI DEBHI1C |
| Aircraft | A343/H-SDE2E3FGHIJ4J5M1RWXY/LB1D1 |
Departure
| Time | 2026-05-08 12:30 |
|---|---|
| Airport | Almaty International Airport (UAAA) |
Arrival
| Time | 2026-05-08 20:13 |
|---|---|
| Airport | Frankfurt Main Airport (EDDF) |
| Time | Latitude | Longitude | Altitude | Speed | Heading |
|---|---|---|---|---|---|
| 2026-05-08 11:58 | 43.34963 | 77.01305 | 2233 ft | 0 kts | 246° |
| 2026-05-08 12:19 | 43.34966 | 77.01315 | 2233 ft | 4 kts | 243° |
| 2026-05-08 12:19 | 43.34975 | 77.01340 | 2227 ft | 4 kts | 268° |
| 2026-05-08 12:19 | 43.34975 | 77.01369 | 2225 ft | 3 kts | 235° |
| 2026-05-08 12:19 | 43.34992 | 77.01394 | 2233 ft | 4 kts | 206° |
| 2026-05-08 12:20 | 43.35017 | 77.01403 | 2229 ft | 4 kts | 178° |
| 2026-05-08 12:20 | 43.35044 | 77.01397 | 2233 ft | 4 kts | 162° |
| 2026-05-08 12:20 | 43.35058 | 77.01390 | 2233 ft | 0 kts | 156° |
| 2026-05-08 12:23 | 43.35053 | 77.01393 | 2233 ft | 4 kts | 156° |
| 2026-05-08 12:24 | 43.35007 | 77.01421 | 2228 ft | 8 kts | 156° |
| 2026-05-08 12:24 | 43.34943 | 77.01460 | 2233 ft | 11 kts | 156° |
| 2026-05-08 12:24 | 43.34873 | 77.01500 | 2230 ft | 12 kts | 162° |
| 2026-05-08 12:24 | 43.34784 | 77.01482 | 2228 ft | 14 kts | 199° |
| 2026-05-08 12:25 | 43.34689 | 77.01445 | 2230 ft | 14 kts | 181° |
| 2026-05-08 12:25 | 43.34597 | 77.01467 | 2230 ft | 13 kts | 170° |
| 2026-05-08 12:25 | 43.34509 | 77.01511 | 2231 ft | 14 kts | 156° |
| 2026-05-08 12:25 | 43.34419 | 77.01569 | 2230 ft | 14 kts | 155° |
| 2026-05-08 12:26 | 43.34330 | 77.01625 | 2234 ft | 14 kts | 155° |
| 2026-05-08 12:26 | 43.34246 | 77.01678 | 2230 ft | 13 kts | 155° |
| 2026-05-08 12:26 | 43.34168 | 77.01732 | 2230 ft | 12 kts | 148° |
| 2026-05-08 12:26 | 43.34156 | 77.01805 | 2226 ft | 7 kts | 64° |
| 2026-05-08 12:27 | 43.34177 | 77.01853 | 2232 ft | 2 kts | 57° |
| 2026-05-08 12:27 | 43.34179 | 77.01857 | 2232 ft | 0 kts | 56° |
| 2026-05-08 12:28 | 43.34206 | 77.01911 | 2229 ft | 25 kts | 56° |
| 2026-05-08 12:28 | 43.34408 | 77.02316 | 2226 ft | 76 kts | 55° |
| 2026-05-08 12:29 | 43.34795 | 77.03090 | 2227 ft | 119 kts | 56° |
| 2026-05-08 12:29 | 43.35330 | 77.04172 | 2228 ft | 154 kts | 56° |
| 2026-05-08 12:29 | 43.35990 | 77.05497 | 2309 ft | 177 kts | 55° |
| 2026-05-08 12:29 | 43.36677 | 77.06884 | 2815 ft | 173 kts | 55° |
| 2026-05-08 12:30 | 43.37355 | 77.08218 | 3356 ft | 168 kts | 52° |
| 2026-05-08 12:30 | 43.38125 | 77.09500 | 3611 ft | 183 kts | 33° |
| 2026-05-08 12:30 | 43.39367 | 77.09842 | 3818 ft | 196 kts | 346° |
| 2026-05-08 12:30 | 43.40516 | 77.08774 | 4022 ft | 214 kts | 302° |
| 2026-05-08 12:31 | 43.41124 | 77.06801 | 4306 ft | 234 kts | 290° |
| 2026-05-08 12:31 | 43.41857 | 77.04701 | 4644 ft | 254 kts | 301° |
| 2026-05-08 12:31 | 43.42910 | 77.02680 | 5153 ft | 263 kts | 309° |
| 2026-05-08 12:31 | 43.44137 | 77.00771 | 5731 ft | 270 kts | 313° |
| 2026-05-08 12:32 | 43.45464 | 76.98916 | 6337 ft | 274 kts | 315° |
| 2026-05-08 12:32 | 43.46847 | 76.97089 | 6968 ft | 277 kts | 316° |
| 2026-05-08 12:32 | 43.48260 | 76.95273 | 7655 ft | 279 kts | 316° |
| 2026-05-08 12:32 | 43.49688 | 76.93464 | 8403 ft | 279 kts | 317° |
| 2026-05-08 12:33 | 43.51126 | 76.91654 | 9167 ft | 281 kts | 317° |
| 2026-05-08 12:33 | 43.52573 | 76.89833 | 9880 ft | 282 kts | 316° |
| 2026-05-08 12:33 | 43.53913 | 76.87808 | 10351 ft | 292 kts | 305° |
| 2026-05-08 12:33 | 43.54903 | 76.85293 | 10632 ft | 307 kts | 290° |
| 2026-05-08 12:34 | 43.55362 | 76.82347 | 10950 ft | 323 kts | 274° |
| 2026-05-08 12:34 | 43.55213 | 76.79192 | 11232 ft | 338 kts | 261° |
| 2026-05-08 12:34 | 43.54775 | 76.75944 | 11493 ft | 351 kts | 259° |
| 2026-05-08 12:34 | 43.54292 | 76.72582 | 11750 ft | 364 kts | 259° |
| 2026-05-08 12:35 | 43.53803 | 76.69121 | 12102 ft | 372 kts | 260° |
| 2026-05-08 12:35 | 43.53311 | 76.65594 | 12556 ft | 377 kts | 260° |
| 2026-05-08 12:35 | 43.52818 | 76.62025 | 13069 ft | 380 kts | 260° |
| 2026-05-08 12:35 | 43.52328 | 76.58478 | 13582 ft | 384 kts | 260° |
| 2026-05-08 12:36 | 43.51828 | 76.54856 | 14064 ft | 387 kts | 260° |
| 2026-05-08 12:36 | 43.51323 | 76.51200 | 14537 ft | 390 kts | 260° |
| 2026-05-08 12:36 | 43.50814 | 76.47523 | 15059 ft | 392 kts | 260° |
| 2026-05-08 12:36 | 43.50301 | 76.43831 | 15592 ft | 394 kts | 260° |
| 2026-05-08 12:37 | 43.49783 | 76.40106 | 16093 ft | 397 kts | 260° |
| 2026-05-08 12:37 | 43.49260 | 76.36356 | 16602 ft | 400 kts | 260° |
| 2026-05-08 12:37 | 43.48732 | 76.32583 | 17086 ft | 403 kts | 260° |
| 2026-05-08 12:37 | 43.48197 | 76.28773 | 17601 ft | 406 kts | 260° |
| 2026-05-08 12:38 | 43.47657 | 76.24940 | 18102 ft | 409 kts | 260° |
| 2026-05-08 12:38 | 43.47112 | 76.21075 | 18572 ft | 412 kts | 260° |
| 2026-05-08 12:38 | 43.46564 | 76.17193 | 19030 ft | 414 kts | 260° |
| 2026-05-08 12:38 | 43.46011 | 76.13294 | 19491 ft | 416 kts | 260° |
| 2026-05-08 12:39 | 43.45455 | 76.09372 | 20014 ft | 417 kts | 260° |
| 2026-05-08 12:39 | 43.44897 | 76.05446 | 20473 ft | 419 kts | 260° |
| 2026-05-08 12:39 | 43.44341 | 76.01553 | 20914 ft | 421 kts | 260° |
| 2026-05-08 12:39 | 43.43775 | 75.97588 | 21367 ft | 424 kts | 260° |
| 2026-05-08 12:40 | 43.43203 | 75.93601 | 21805 ft | 426 kts | 259° |
| 2026-05-08 12:40 | 43.42628 | 75.89600 | 22244 ft | 428 kts | 259° |
| 2026-05-08 12:40 | 43.42047 | 75.85565 | 22661 ft | 430 kts | 259° |
| 2026-05-08 12:40 | 43.41462 | 75.81519 | 23086 ft | 432 kts | 259° |
| 2026-05-08 12:41 | 43.40873 | 75.77458 | 23511 ft | 435 kts | 259° |
| 2026-05-08 12:41 | 43.40279 | 75.73374 | 23868 ft | 437 kts | 259° |
| 2026-05-08 12:41 | 43.39681 | 75.69268 | 24199 ft | 439 kts | 259° |
| 2026-05-08 12:41 | 43.39079 | 75.65147 | 24533 ft | 441 kts | 259° |
| 2026-05-08 12:42 | 43.38473 | 75.60998 | 24864 ft | 443 kts | 259° |
| 2026-05-08 12:42 | 43.38033 | 75.56807 | 25179 ft | 444 kts | 266° |
| 2026-05-08 12:42 | 43.38062 | 75.52563 | 25504 ft | 445 kts | 276° |
| 2026-05-08 12:42 | 43.38568 | 75.48408 | 25806 ft | 447 kts | 282° |
| 2026-05-08 12:43 | 43.39278 | 75.44183 | 26120 ft | 449 kts | 283° |
| 2026-05-08 12:43 | 43.40046 | 75.40073 | 26462 ft | 449 kts | 284° |
| 2026-05-08 12:43 | 43.40849 | 75.35929 | 26865 ft | 449 kts | 284° |
| 2026-05-08 12:43 | 43.41656 | 75.31769 | 27153 ft | 451 kts | 284° |
| 2026-05-08 12:44 | 43.42456 | 75.27588 | 27427 ft | 453 kts | 284° |
| 2026-05-08 12:44 | 43.43246 | 75.23392 | 27704 ft | 455 kts | 284° |
| 2026-05-08 12:44 | 43.44034 | 75.19171 | 27994 ft | 456 kts | 284° |
| 2026-05-08 12:44 | 43.44818 | 75.14931 | 28271 ft | 458 kts | 284° |
| 2026-05-08 12:45 | 43.45599 | 75.10670 | 28520 ft | 460 kts | 283° |
| 2026-05-08 12:45 | 43.46380 | 75.06384 | 28791 ft | 462 kts | 283° |
| 2026-05-08 12:45 | 43.47157 | 75.02120 | 29273 ft | 458 kts | 283° |
| 2026-05-08 12:45 | 43.47927 | 74.97881 | 29806 ft | 454 kts | 283° |
| 2026-05-08 12:46 | 43.48691 | 74.93675 | 30182 ft | 452 kts | 283° |
| 2026-05-08 12:46 | 43.49452 | 74.89476 | 30457 ft | 452 kts | 283° |
| 2026-05-08 12:46 | 43.50211 | 74.85276 | 30719 ft | 452 kts | 283° |
| 2026-05-08 12:46 | 43.50969 | 74.81079 | 31011 ft | 451 kts | 283° |
| 2026-05-08 12:47 | 43.51727 | 74.76883 | 31305 ft | 450 kts | 283° |
| 2026-05-08 12:47 | 43.52480 | 74.72700 | 31587 ft | 450 kts | 282° |
| 2026-05-08 12:47 | 43.53229 | 74.68510 | 31869 ft | 449 kts | 282° |
| 2026-05-08 12:47 | 43.53974 | 74.64334 | 32138 ft | 448 kts | 282° |
| 2026-05-08 12:48 | 43.54706 | 74.60218 | 32397 ft | 447 kts | 282° |
| 2026-05-08 12:48 | 43.55446 | 74.56050 | 32668 ft | 447 kts | 282° |
| 2026-05-08 12:48 | 43.56184 | 74.51887 | 32931 ft | 446 kts | 282° |
| 2026-05-08 12:48 | 43.56918 | 74.47735 | 33202 ft | 445 kts | 282° |
| 2026-05-08 12:49 | 43.57651 | 74.43589 | 33477 ft | 444 kts | 282° |
| 2026-05-08 12:49 | 43.58380 | 74.39448 | 33742 ft | 444 kts | 282° |
| 2026-05-08 12:49 | 43.59107 | 74.35312 | 33962 ft | 443 kts | 281° |
| 2026-05-08 12:49 | 43.59826 | 74.31215 | 34175 ft | 442 kts | 281° |
| 2026-05-08 12:50 | 43.60549 | 74.27086 | 34388 ft | 442 kts | 281° |
| 2026-05-08 12:50 | 43.61268 | 74.22970 | 34599 ft | 441 kts | 281° |
| 2026-05-08 12:50 | 43.61988 | 74.18857 | 34788 ft | 440 kts | 282° |
| 2026-05-08 12:50 | 43.62707 | 74.14750 | 34984 ft | 440 kts | 282° |
| 2026-05-08 12:51 | 43.63424 | 74.10643 | 35181 ft | 439 kts | 282° |
| 2026-05-08 12:51 | 43.64847 | 74.02455 | 35540 ft | 438 kts | 282° |
| 2026-05-08 12:51 | 43.65557 | 73.98362 | 35734 ft | 437 kts | 282° |
| 2026-05-08 12:52 | 43.66264 | 73.94274 | 35922 ft | 437 kts | 282° |
| 2026-05-08 12:52 | 43.68377 | 73.81999 | 35967 ft | 440 kts | 282° |
| 2026-05-08 12:53 | 43.69357 | 73.73701 | 35952 ft | 436 kts | 271° |
| 2026-05-08 12:53 | 43.69167 | 73.65323 | 35956 ft | 436 kts | 266° |
| 2026-05-08 12:54 | 43.68740 | 73.56954 | 35958 ft | 436 kts | 265° |
| 2026-05-08 12:54 | 43.68280 | 73.48666 | 35964 ft | 435 kts | 265° |
| 2026-05-08 12:55 | 43.67827 | 73.40323 | 35955 ft | 435 kts | 265° |
| 2026-05-08 12:55 | 43.67380 | 73.31981 | 35959 ft | 435 kts | 265° |
| 2026-05-08 12:56 | 43.66930 | 73.23630 | 35969 ft | 437 kts | 266° |
| 2026-05-08 12:56 | 43.66473 | 73.15251 | 35966 ft | 437 kts | 265° |
| 2026-05-08 12:57 | 43.66087 | 73.08284 | 35957 ft | 437 kts | 265° |
| 2026-05-08 12:57 | 43.65616 | 72.99895 | 35959 ft | 437 kts | 265° |
| 2026-05-08 12:58 | 43.65140 | 72.91517 | 35967 ft | 437 kts | 265° |
| 2026-05-08 12:58 | 43.64662 | 72.83203 | 35968 ft | 436 kts | 265° |
| 2026-05-08 12:59 | 43.64175 | 72.74852 | 35969 ft | 436 kts | 265° |
| 2026-05-08 12:59 | 43.63682 | 72.66501 | 35974 ft | 436 kts | 265° |
| 2026-05-08 13:00 | 43.63184 | 72.58169 | 35982 ft | 435 kts | 265° |
| 2026-05-08 13:00 | 43.62684 | 72.49896 | 35984 ft | 434 kts | 265° |
| 2026-05-08 13:01 | 43.62174 | 72.41584 | 35982 ft | 434 kts | 264° |
| 2026-05-08 13:01 | 43.61659 | 72.33273 | 35993 ft | 434 kts | 264° |
| 2026-05-08 13:02 | 43.61138 | 72.24965 | 35985 ft | 434 kts | 264° |
| 2026-05-08 13:02 | 43.60612 | 72.16673 | 35983 ft | 432 kts | 264° |
| 2026-05-08 13:03 | 43.60086 | 72.08477 | 35986 ft | 431 kts | 264° |
| 2026-05-08 13:03 | 43.59551 | 72.00236 | 35985 ft | 431 kts | 264° |
| 2026-05-08 13:04 | 43.59011 | 71.92006 | 35985 ft | 431 kts | 264° |
| 2026-05-08 13:04 | 43.58464 | 71.83771 | 35984 ft | 430 kts | 264° |
| 2026-05-08 13:05 | 43.57912 | 71.75550 | 35984 ft | 429 kts | 264° |
| 2026-05-08 13:05 | 43.57358 | 71.67386 | 35982 ft | 429 kts | 264° |
| 2026-05-08 13:06 | 43.56796 | 71.59191 | 35981 ft | 429 kts | 264° |
| 2026-05-08 13:06 | 43.56228 | 71.50986 | 35988 ft | 429 kts | 264° |
| 2026-05-08 13:07 | 43.55656 | 71.42818 | 35985 ft | 431 kts | 264° |
| 2026-05-08 13:07 | 43.55073 | 71.34568 | 35980 ft | 431 kts | 264° |
| 2026-05-08 13:08 | 43.54484 | 71.26334 | 35988 ft | 431 kts | 264° |
| 2026-05-08 13:08 | 43.53890 | 71.18107 | 35981 ft | 431 kts | 264° |
| 2026-05-08 13:09 | 43.53294 | 71.09936 | 35988 ft | 431 kts | 263° |
| 2026-05-08 13:09 | 43.52688 | 71.01703 | 35983 ft | 431 kts | 263° |
| 2026-05-08 13:10 | 43.52076 | 70.93472 | 35982 ft | 431 kts | 263° |
| 2026-05-08 13:10 | 43.51459 | 70.85258 | 35986 ft | 431 kts | 263° |
| 2026-05-08 13:11 | 43.50830 | 70.77098 | 35985 ft | 431 kts | 263° |
| 2026-05-08 13:11 | 43.50194 | 70.68920 | 35974 ft | 428 kts | 263° |
| 2026-05-08 13:12 | 43.49556 | 70.60784 | 35970 ft | 427 kts | 263° |
| 2026-05-08 13:12 | 43.48912 | 70.52642 | 35967 ft | 427 kts | 263° |
| 2026-05-08 13:13 | 43.48262 | 70.44512 | 35970 ft | 427 kts | 263° |
| 2026-05-08 13:13 | 43.47608 | 70.36403 | 35972 ft | 425 kts | 263° |
| 2026-05-08 13:14 | 43.46953 | 70.28343 | 35971 ft | 423 kts | 263° |
| 2026-05-08 13:14 | 43.46293 | 70.20297 | 35977 ft | 423 kts | 263° |
| 2026-05-08 13:15 | 43.45628 | 70.12257 | 35977 ft | 423 kts | 263° |
| 2026-05-08 13:15 | 43.44957 | 70.04220 | 35998 ft | 423 kts | 264° |
| 2026-05-08 13:16 | 43.44287 | 69.96271 | 35971 ft | 418 kts | 263° |
| 2026-05-08 13:16 | 43.43613 | 69.88336 | 35972 ft | 417 kts | 263° |
| 2026-05-08 13:17 | 43.42934 | 69.80398 | 35976 ft | 417 kts | 263° |
| 2026-05-08 13:17 | 43.42254 | 69.72470 | 35974 ft | 417 kts | 264° |
| 2026-05-08 13:18 | 43.41593 | 69.64533 | 35972 ft | 416 kts | 264° |
| 2026-05-08 13:18 | 43.40937 | 69.56650 | 35967 ft | 414 kts | 264° |
| 2026-05-08 13:19 | 43.40281 | 69.48847 | 35973 ft | 413 kts | 264° |
| 2026-05-08 13:19 | 43.39614 | 69.41003 | 35966 ft | 413 kts | 264° |
| 2026-05-08 13:20 | 43.38940 | 69.33151 | 35956 ft | 413 kts | 264° |
| 2026-05-08 13:20 | 43.38260 | 69.25325 | 35964 ft | 410 kts | 265° |
| 2026-05-08 13:21 | 43.37582 | 69.17554 | 35961 ft | 409 kts | 265° |
| 2026-05-08 13:21 | 43.36930 | 69.09780 | 35957 ft | 409 kts | 265° |
| 2026-05-08 13:22 | 43.36297 | 69.02050 | 35948 ft | 409 kts | 265° |
| 2026-05-08 13:22 | 43.35652 | 68.94277 | 35944 ft | 408 kts | 265° |
| 2026-05-08 13:23 | 43.35000 | 68.86529 | 35924 ft | 407 kts | 265° |
| 2026-05-08 13:23 | 43.34342 | 68.78794 | 35923 ft | 407 kts | 265° |
| 2026-05-08 13:24 | 43.33683 | 68.71106 | 35918 ft | 407 kts | 265° |
| 2026-05-08 13:24 | 43.33016 | 68.63376 | 35909 ft | 407 kts | 264° |
| 2026-05-08 13:25 | 43.32337 | 68.55643 | 35911 ft | 406 kts | 264° |
| 2026-05-08 13:25 | 43.31449 | 68.47996 | 35912 ft | 405 kts | 262° |
| 2026-05-08 13:26 | 43.30477 | 68.40422 | 35922 ft | 404 kts | 262° |
| 2026-05-08 13:26 | 43.29465 | 68.32836 | 35923 ft | 404 kts | 259° |
| 2026-05-08 13:27 | 43.28057 | 68.25344 | 35925 ft | 405 kts | 256° |
| 2026-05-08 13:27 | 43.26572 | 68.17900 | 35911 ft | 403 kts | 257° |
| 2026-05-08 13:28 | 43.25155 | 68.10513 | 35909 ft | 402 kts | 257° |
| 2026-05-08 13:28 | 43.23767 | 68.03089 | 35908 ft | 402 kts | 257° |
| 2026-05-08 13:29 | 43.22381 | 67.95652 | 35906 ft | 402 kts | 257° |
| 2026-05-08 13:29 | 43.20991 | 67.88232 | 35907 ft | 401 kts | 257° |
| 2026-05-08 13:30 | 43.19602 | 67.80856 | 35908 ft | 399 kts | 257° |
| 2026-05-08 13:30 | 43.18208 | 67.73494 | 35908 ft | 399 kts | 257° |
| 2026-05-08 13:31 | 43.16817 | 67.66177 | 35908 ft | 399 kts | 257° |
| 2026-05-08 13:31 | 43.15413 | 67.58816 | 35908 ft | 399 kts | 257° |
| 2026-05-08 13:32 | 43.14006 | 67.51471 | 35908 ft | 399 kts | 257° |
| 2026-05-08 13:32 | 43.12592 | 67.44119 | 35908 ft | 399 kts | 257° |
| 2026-05-08 13:33 | 43.11175 | 67.36787 | 35911 ft | 399 kts | 257° |
| 2026-05-08 13:33 | 43.09757 | 67.29443 | 35911 ft | 399 kts | 257° |
| 2026-05-08 13:34 | 43.08336 | 67.22112 | 35913 ft | 398 kts | 257° |
| 2026-05-08 13:34 | 43.06922 | 67.14856 | 35911 ft | 397 kts | 257° |
| 2026-05-08 13:35 | 43.05493 | 67.07554 | 35914 ft | 397 kts | 257° |
| 2026-05-08 13:35 | 43.04059 | 67.00245 | 35914 ft | 397 kts | 257° |
| 2026-05-08 13:36 | 43.02622 | 66.92959 | 35916 ft | 397 kts | 256° |
| 2026-05-08 13:36 | 43.01180 | 66.85670 | 35916 ft | 396 kts | 256° |
| 2026-05-08 13:37 | 42.99750 | 66.78464 | 35916 ft | 395 kts | 256° |
| 2026-05-08 13:37 | 42.98299 | 66.71208 | 35919 ft | 395 kts | 256° |
| 2026-05-08 13:38 | 42.96826 | 66.63974 | 35919 ft | 396 kts | 256° |
| 2026-05-08 13:38 | 42.95350 | 66.56734 | 35925 ft | 395 kts | 256° |
| 2026-05-08 13:39 | 42.93903 | 66.49527 | 35922 ft | 393 kts | 256° |
| 2026-05-08 13:39 | 42.92459 | 66.42331 | 35926 ft | 392 kts | 256° |
| 2026-05-08 13:40 | 42.91020 | 66.35193 | 35926 ft | 393 kts | 256° |
| 2026-05-08 13:40 | 42.89562 | 66.28001 | 35927 ft | 393 kts | 256° |
| 2026-05-08 13:41 | 42.88103 | 66.20825 | 35927 ft | 392 kts | 256° |
| 2026-05-08 13:41 | 42.86645 | 66.13683 | 35931 ft | 391 kts | 256° |
| 2026-05-08 13:42 | 42.85184 | 66.06544 | 35933 ft | 391 kts | 256° |
| 2026-05-08 13:42 | 42.83706 | 65.99414 | 35934 ft | 391 kts | 255° |
| 2026-05-08 13:43 | 42.82215 | 65.92288 | 35932 ft | 391 kts | 255° |
| 2026-05-08 13:43 | 42.80723 | 65.85163 | 35939 ft | 391 kts | 255° |
| 2026-05-08 13:44 | 42.79239 | 65.78088 | 35941 ft | 391 kts | 255° |
| 2026-05-08 13:44 | 42.77741 | 65.70950 | 35941 ft | 392 kts | 255° |
| 2026-05-08 13:45 | 42.76234 | 65.63820 | 35949 ft | 392 kts | 255° |
| 2026-05-08 13:45 | 42.74978 | 65.57901 | 35948 ft | 391 kts | 255° |
| 2026-05-08 13:46 | 42.73466 | 65.50792 | 35955 ft | 391 kts | 255° |
| 2026-05-08 13:46 | 42.71951 | 65.43686 | 35954 ft | 391 kts | 255° |
| 2026-05-08 13:47 | 42.70433 | 65.36588 | 35958 ft | 391 kts | 255° |
| 2026-05-08 13:47 | 42.68909 | 65.29486 | 35957 ft | 391 kts | 255° |
| 2026-05-08 13:48 | 42.67383 | 65.22400 | 35961 ft | 390 kts | 255° |
| 2026-05-08 13:48 | 42.65865 | 65.15380 | 35969 ft | 390 kts | 255° |
| 2026-05-08 13:49 | 42.64333 | 65.08313 | 35968 ft | 389 kts | 255° |
| 2026-05-08 13:49 | 42.62799 | 65.01262 | 35969 ft | 389 kts | 255° |
| 2026-05-08 13:50 | 42.61260 | 64.94206 | 35971 ft | 389 kts | 254° |
| 2026-05-08 13:50 | 42.59715 | 64.87150 | 35975 ft | 390 kts | 254° |
| 2026-05-08 13:51 | 42.58163 | 64.80089 | 35975 ft | 390 kts | 254° |
| 2026-05-08 13:51 | 42.56607 | 64.73035 | 35978 ft | 390 kts | 254° |
| 2026-05-08 13:52 | 42.55057 | 64.66025 | 35979 ft | 390 kts | 254° |
| 2026-05-08 13:52 | 42.53493 | 64.58972 | 35982 ft | 390 kts | 254° |
| 2026-05-08 13:53 | 42.51931 | 64.51953 | 35982 ft | 389 kts | 254° |
| 2026-05-08 13:53 | 42.50365 | 64.44941 | 35982 ft | 388 kts | 254° |
| 2026-05-08 13:54 | 42.48794 | 64.37931 | 35985 ft | 389 kts | 254° |
| 2026-05-08 13:54 | 42.47217 | 64.30915 | 35984 ft | 389 kts | 254° |
| 2026-05-08 13:55 | 42.45638 | 64.23910 | 35985 ft | 389 kts | 254° |
| 2026-05-08 13:56 | 42.43287 | 64.13454 | 35986 ft | 389 kts | 254° |
| 2026-05-08 13:56 | 42.41717 | 64.06454 | 35985 ft | 389 kts | 254° |
| 2026-05-08 13:57 | 42.40141 | 63.99459 | 35983 ft | 389 kts | 254° |
| 2026-05-08 13:57 | 42.38552 | 63.92486 | 35990 ft | 387 kts | 253° |
| 2026-05-08 13:58 | 42.36945 | 63.85543 | 35993 ft | 386 kts | 253° |
| 2026-05-08 13:58 | 42.35337 | 63.78604 | 35993 ft | 387 kts | 253° |
| 2026-05-08 13:59 | 42.33727 | 63.71663 | 35993 ft | 387 kts | 253° |
| 2026-05-08 13:59 | 42.32126 | 63.64774 | 35992 ft | 386 kts | 253° |
| 2026-05-08 14:00 | 42.30515 | 63.57864 | 35994 ft | 385 kts | 253° |
| 2026-05-08 14:00 | 42.28902 | 63.50965 | 36004 ft | 385 kts | 253° |
| 2026-05-08 14:01 | 42.27283 | 63.44065 | 35999 ft | 385 kts | 253° |
| 2026-05-08 14:01 | 42.25662 | 63.37180 | 35999 ft | 385 kts | 253° |
| 2026-05-08 14:02 | 42.24040 | 63.30310 | 35995 ft | 382 kts | 253° |
| 2026-05-08 14:02 | 42.22436 | 63.23536 | 35991 ft | 381 kts | 253° |
| 2026-05-08 14:03 | 42.20818 | 63.16719 | 35990 ft | 381 kts | 253° |
| 2026-05-08 14:03 | 42.19194 | 63.09901 | 35989 ft | 381 kts | 252° |
| 2026-05-08 14:04 | 42.17568 | 63.03096 | 35991 ft | 381 kts | 252° |
| 2026-05-08 14:04 | 42.15961 | 62.96369 | 35991 ft | 379 kts | 252° |
| 2026-05-08 14:05 | 42.14339 | 62.89605 | 35990 ft | 379 kts | 252° |
| 2026-05-08 14:05 | 42.12714 | 62.82856 | 35992 ft | 379 kts | 252° |
| 2026-05-08 14:06 | 42.11081 | 62.76091 | 35993 ft | 379 kts | 252° |
| 2026-05-08 14:06 | 42.09460 | 62.69381 | 35995 ft | 379 kts | 251° |
| 2026-05-08 14:07 | 42.07823 | 62.62629 | 35994 ft | 379 kts | 251° |
| 2026-05-08 14:07 | 42.06185 | 62.55877 | 35996 ft | 379 kts | 251° |
| 2026-05-08 14:08 | 42.04535 | 62.49126 | 36000 ft | 379 kts | 251° |
| 2026-05-08 14:08 | 42.02881 | 62.42371 | 35998 ft | 379 kts | 251° |
| 2026-05-08 14:09 | 42.01226 | 62.35631 | 36001 ft | 379 kts | 251° |
| 2026-05-08 14:09 | 41.99576 | 62.28925 | 36004 ft | 379 kts | 251° |
| 2026-05-08 14:10 | 41.97913 | 62.22187 | 36004 ft | 379 kts | 251° |
| 2026-05-08 14:10 | 41.96257 | 62.15498 | 36004 ft | 379 kts | 251° |
| 2026-05-08 14:11 | 41.94587 | 62.08767 | 36001 ft | 379 kts | 250° |
| 2026-05-08 14:11 | 41.92922 | 62.02054 | 36001 ft | 379 kts | 250° |
| 2026-05-08 14:12 | 41.91247 | 61.95332 | 36005 ft | 379 kts | 250° |
| 2026-05-08 14:12 | 41.89576 | 61.88651 | 36004 ft | 379 kts | 250° |
| 2026-05-08 14:13 | 41.87890 | 61.81921 | 36021 ft | 379 kts | 250° |
| 2026-05-08 14:13 | 41.86218 | 61.75265 | 36007 ft | 378 kts | 250° |
| 2026-05-08 14:14 | 41.84534 | 61.68587 | 36007 ft | 378 kts | 250° |
| 2026-05-08 14:14 | 41.82840 | 61.61913 | 36007 ft | 378 kts | 250° |
| 2026-05-08 14:15 | 41.81144 | 61.55243 | 36007 ft | 378 kts | 250° |
| 2026-05-08 14:15 | 41.79454 | 61.48611 | 36007 ft | 377 kts | 249° |
| 2026-05-08 14:16 | 41.77756 | 61.41962 | 36008 ft | 377 kts | 249° |
| 2026-05-08 14:16 | 41.76049 | 61.35301 | 36007 ft | 377 kts | 249° |
| 2026-05-08 14:17 | 41.74345 | 61.28670 | 36007 ft | 377 kts | 249° |
| 2026-05-08 14:17 | 41.72636 | 61.22038 | 36010 ft | 377 kts | 249° |
| 2026-05-08 14:18 | 41.70933 | 61.15448 | 36009 ft | 377 kts | 249° |
| 2026-05-08 14:18 | 41.69214 | 61.08813 | 36010 ft | 376 kts | 249° |
| 2026-05-08 14:19 | 41.67492 | 61.02187 | 36009 ft | 376 kts | 249° |
| 2026-05-08 14:19 | 41.65768 | 60.95567 | 36010 ft | 377 kts | 249° |
| 2026-05-08 14:20 | 41.64048 | 60.88984 | 36019 ft | 376 kts | 249° |
| 2026-05-08 14:20 | 41.62317 | 60.82375 | 36020 ft | 376 kts | 249° |
| 2026-05-08 14:21 | 41.60594 | 60.75816 | 36021 ft | 376 kts | 249° |
| 2026-05-08 14:21 | 41.58858 | 60.69225 | 36019 ft | 376 kts | 249° |
| 2026-05-08 14:22 | 41.57138 | 60.62630 | 36023 ft | 376 kts | 250° |
| 2026-05-08 14:22 | 41.55587 | 60.55954 | 36021 ft | 377 kts | 250° |
| 2026-05-08 14:23 | 41.54070 | 60.49239 | 36019 ft | 377 kts | 250° |
| 2026-05-08 14:23 | 41.52537 | 60.42585 | 36018 ft | 377 kts | 250° |
| 2026-05-08 14:24 | 41.50973 | 60.35900 | 36017 ft | 377 kts | 250° |
| 2026-05-08 14:24 | 41.49402 | 60.29228 | 36011 ft | 377 kts | 250° |
| 2026-05-08 14:25 | 41.47827 | 60.22555 | 36013 ft | 377 kts | 250° |
| 2026-05-08 14:25 | 41.46246 | 60.15887 | 36012 ft | 377 kts | 250° |
| 2026-05-08 14:26 | 41.44644 | 60.09223 | 36012 ft | 377 kts | 249° |
| 2026-05-08 14:26 | 41.43037 | 60.02566 | 36012 ft | 377 kts | 249° |
| 2026-05-08 14:27 | 41.41437 | 59.95949 | 36014 ft | 377 kts | 249° |
| 2026-05-08 14:27 | 41.39824 | 59.89292 | 36017 ft | 378 kts | 249° |
| 2026-05-08 14:28 | 41.38203 | 59.82619 | 36017 ft | 378 kts | 249° |
| 2026-05-08 14:28 | 41.36582 | 59.75965 | 36017 ft | 378 kts | 249° |
| 2026-05-08 14:29 | 41.34965 | 59.69305 | 36039 ft | 378 kts | 250° |
| 2026-05-08 14:29 | 41.33935 | 59.62444 | 36018 ft | 383 kts | 257° |
| 2026-05-08 14:30 | 41.33240 | 59.55402 | 36016 ft | 384 kts | 258° |
| 2026-05-08 14:30 | 41.32597 | 59.48345 | 36018 ft | 384 kts | 258° |
| 2026-05-08 14:31 | 41.31944 | 59.41284 | 36019 ft | 385 kts | 258° |
| 2026-05-08 14:31 | 41.31277 | 59.34213 | 36016 ft | 385 kts | 258° |
| 2026-05-08 14:32 | 41.30262 | 59.23637 | 36026 ft | 386 kts | 258° |
| 2026-05-08 14:32 | 41.29577 | 59.16542 | 36022 ft | 386 kts | 258° |
| 2026-05-08 14:33 | 41.28889 | 59.09465 | 36023 ft | 386 kts | 258° |
| 2026-05-08 14:33 | 41.28197 | 59.02391 | 36021 ft | 386 kts | 258° |
| 2026-05-08 14:34 | 41.27617 | 58.96501 | 36025 ft | 386 kts | 258° |
| 2026-05-08 14:34 | 41.26916 | 58.89423 | 36022 ft | 386 kts | 257° |
| 2026-05-08 14:35 | 41.26210 | 58.82338 | 36022 ft | 386 kts | 257° |
| 2026-05-08 14:35 | 41.25499 | 58.75244 | 36026 ft | 386 kts | 257° |
| 2026-05-08 14:36 | 41.24784 | 58.68162 | 36021 ft | 386 kts | 257° |
| 2026-05-08 14:36 | 41.24070 | 58.61128 | 36023 ft | 386 kts | 257° |
| 2026-05-08 14:37 | 41.23346 | 58.54045 | 36051 ft | 387 kts | 257° |
| 2026-05-08 14:37 | 41.22615 | 58.46943 | 36021 ft | 389 kts | 257° |
| 2026-05-08 14:38 | 41.21878 | 58.39830 | 36029 ft | 389 kts | 257° |
| 2026-05-08 14:38 | 41.21138 | 58.32716 | 36022 ft | 389 kts | 257° |
| 2026-05-08 14:39 | 41.20394 | 58.25606 | 36026 ft | 389 kts | 257° |
| 2026-05-08 14:39 | 41.19649 | 58.18533 | 36025 ft | 389 kts | 257° |
| 2026-05-08 14:40 | 41.18894 | 58.11415 | 36025 ft | 389 kts | 257° |
| 2026-05-08 14:40 | 41.18137 | 58.04301 | 36024 ft | 389 kts | 257° |
| 2026-05-08 14:41 | 41.17374 | 57.97192 | 36023 ft | 389 kts | 257° |
| 2026-05-08 14:41 | 41.16607 | 57.90086 | 36028 ft | 389 kts | 257° |
| 2026-05-08 14:42 | 41.15836 | 57.82975 | 36027 ft | 389 kts | 257° |
| 2026-05-08 14:42 | 41.15060 | 57.75869 | 36023 ft | 389 kts | 257° |
| 2026-05-08 14:43 | 41.14281 | 57.68765 | 36018 ft | 389 kts | 257° |
| 2026-05-08 14:43 | 41.13497 | 57.61663 | 36018 ft | 389 kts | 257° |
| 2026-05-08 14:44 | 41.12712 | 57.54600 | 36013 ft | 391 kts | 257° |
| 2026-05-08 14:44 | 41.11913 | 57.47458 | 36015 ft | 392 kts | 257° |
| 2026-05-08 14:45 | 41.11110 | 57.40305 | 36018 ft | 392 kts | 257° |
| 2026-05-08 14:45 | 41.10302 | 57.33148 | 36018 ft | 392 kts | 257° |
| 2026-05-08 14:46 | 41.09490 | 57.25996 | 36020 ft | 392 kts | 256° |
| 2026-05-08 14:46 | 41.08677 | 57.18880 | 36017 ft | 392 kts | 256° |
| 2026-05-08 14:47 | 41.07854 | 57.11722 | 36017 ft | 392 kts | 256° |
| 2026-05-08 14:47 | 41.07028 | 57.04568 | 36017 ft | 392 kts | 256° |
| 2026-05-08 14:48 | 41.06198 | 56.97424 | 36018 ft | 392 kts | 256° |
| 2026-05-08 14:48 | 41.05362 | 56.90272 | 36030 ft | 392 kts | 256° |
| 2026-05-08 14:49 | 41.04521 | 56.83116 | 36020 ft | 393 kts | 256° |
| 2026-05-08 14:49 | 41.03676 | 56.75964 | 36026 ft | 393 kts | 256° |
| 2026-05-08 14:50 | 41.02832 | 56.68862 | 36025 ft | 393 kts | 256° |
| 2026-05-08 14:50 | 41.01979 | 56.61712 | 36049 ft | 393 kts | 256° |
| 2026-05-08 14:51 | 41.01118 | 56.54549 | 36027 ft | 394 kts | 256° |
| 2026-05-08 14:51 | 41.00638 | 56.47289 | 36025 ft | 398 kts | 262° |
| 2026-05-08 14:52 | 41.00473 | 56.36289 | 36027 ft | 399 kts | 263° |
| 2026-05-08 14:53 | 41.00400 | 56.28947 | 36029 ft | 398 kts | 263° |
| 2026-05-08 14:53 | 41.00314 | 56.21616 | 36029 ft | 398 kts | 263° |
| 2026-05-08 14:54 | 41.00216 | 56.14274 | 36029 ft | 399 kts | 263° |
| 2026-05-08 14:54 | 41.00113 | 56.06974 | 36029 ft | 399 kts | 263° |
| 2026-05-08 14:55 | 41.00005 | 55.99635 | 36030 ft | 399 kts | 263° |
| 2026-05-08 14:55 | 40.99891 | 55.92286 | 36034 ft | 400 kts | 263° |
| 2026-05-08 14:56 | 40.99772 | 55.84891 | 36034 ft | 402 kts | 263° |
| 2026-05-08 14:56 | 40.99649 | 55.77472 | 36034 ft | 402 kts | 263° |
| 2026-05-08 14:57 | 40.99538 | 55.70115 | 36043 ft | 402 kts | 263° |
| 2026-05-08 14:57 | 40.99420 | 55.62718 | 36042 ft | 402 kts | 263° |
| 2026-05-08 14:58 | 40.99299 | 55.55314 | 36048 ft | 402 kts | 263° |
| 2026-05-08 14:58 | 40.99173 | 55.47914 | 36049 ft | 402 kts | 263° |
| 2026-05-08 14:59 | 40.99042 | 55.40520 | 36063 ft | 402 kts | 263° |
| 2026-05-08 14:59 | 40.98835 | 55.29417 | 36060 ft | 404 kts | 263° |
| 2026-05-08 15:00 | 40.98689 | 55.21946 | 36073 ft | 407 kts | 263° |
| 2026-05-08 15:00 | 40.98541 | 55.14458 | 36070 ft | 407 kts | 263° |
| 2026-05-08 15:01 | 40.98388 | 55.07016 | 36076 ft | 407 kts | 263° |
| 2026-05-08 15:01 | 40.98229 | 54.99531 | 36082 ft | 407 kts | 263° |
| 2026-05-08 15:02 | 40.98065 | 54.92045 | 36084 ft | 407 kts | 263° |
| 2026-05-08 15:02 | 40.97896 | 54.84567 | 36081 ft | 407 kts | 263° |
| 2026-05-08 15:03 | 40.97714 | 54.77083 | 36081 ft | 406 kts | 262° |
| 2026-05-08 15:03 | 40.97525 | 54.69585 | 36092 ft | 407 kts | 262° |
| 2026-05-08 15:04 | 40.97331 | 54.62066 | 36085 ft | 410 kts | 262° |
| 2026-05-08 15:04 | 40.97136 | 54.54578 | 36086 ft | 410 kts | 262° |
| 2026-05-08 15:05 | 40.96935 | 54.47039 | 36086 ft | 410 kts | 262° |
| 2026-05-08 15:05 | 40.96728 | 54.39498 | 36087 ft | 410 kts | 262° |
| 2026-05-08 15:06 | 40.96517 | 54.31969 | 36089 ft | 410 kts | 262° |
| 2026-05-08 15:06 | 40.96300 | 54.24431 | 36089 ft | 410 kts | 262° |
| 2026-05-08 15:07 | 40.96079 | 54.16901 | 36088 ft | 409 kts | 262° |
| 2026-05-08 15:07 | 40.95852 | 54.09362 | 36112 ft | 410 kts | 262° |
| 2026-05-08 15:08 | 40.95659 | 54.03089 | 36095 ft | 412 kts | 262° |
| 2026-05-08 15:08 | 40.95381 | 53.94233 | 36092 ft | 412 kts | 262° |
| 2026-05-08 15:09 | 40.95139 | 53.86649 | 36096 ft | 412 kts | 262° |
| 2026-05-08 15:09 | 40.94893 | 53.79118 | 36098 ft | 413 kts | 262° |
| 2026-05-08 15:10 | 40.94640 | 53.71523 | 36098 ft | 413 kts | 262° |
| 2026-05-08 15:10 | 40.94382 | 53.63927 | 36101 ft | 413 kts | 262° |
| 2026-05-08 15:11 | 40.94118 | 53.56315 | 36100 ft | 413 kts | 262° |
| 2026-05-08 15:11 | 40.93850 | 53.48718 | 36093 ft | 413 kts | 262° |
| 2026-05-08 15:12 | 40.93577 | 53.41127 | 36101 ft | 413 kts | 262° |
| 2026-05-08 15:12 | 40.93299 | 53.33538 | 36105 ft | 413 kts | 262° |
| 2026-05-08 15:13 | 40.93015 | 53.25937 | 36105 ft | 413 kts | 262° |
| 2026-05-08 15:13 | 40.92729 | 53.18395 | 36105 ft | 413 kts | 262° |
| 2026-05-08 15:14 | 40.92437 | 53.10803 | 36104 ft | 413 kts | 262° |
| 2026-05-08 15:14 | 40.92133 | 53.03209 | 36107 ft | 413 kts | 261° |
| 2026-05-08 15:15 | 40.91818 | 52.95602 | 36106 ft | 414 kts | 261° |
| 2026-05-08 15:15 | 40.91500 | 52.88006 | 36111 ft | 414 kts | 261° |
| 2026-05-08 15:16 | 40.91177 | 52.80399 | 36108 ft | 415 kts | 261° |
| 2026-05-08 15:16 | 40.90851 | 52.72815 | 36297 ft | 416 kts | 261° |
| 2026-05-08 15:17 | 40.90685 | 52.68992 | 36464 ft | 416 kts | 262° |
| 2026-05-08 15:17 | 40.90518 | 52.65174 | 36617 ft | 417 kts | 262° |
| 2026-05-08 15:17 | 40.90285 | 52.61355 | 36729 ft | 416 kts | 257° |
| 2026-05-08 15:17 | 40.89807 | 52.57600 | 36878 ft | 414 kts | 255° |
| 2026-05-08 15:18 | 40.89263 | 52.53854 | 37015 ft | 414 kts | 255° |
| 2026-05-08 15:18 | 40.88691 | 52.50124 | 37179 ft | 414 kts | 254° |
| 2026-05-08 15:18 | 40.88102 | 52.46390 | 37323 ft | 415 kts | 254° |
| 2026-05-08 15:18 | 40.87508 | 52.42659 | 37461 ft | 415 kts | 254° |
| 2026-05-08 15:19 | 40.86911 | 52.38919 | 37608 ft | 415 kts | 254° |
| 2026-05-08 15:19 | 40.86316 | 52.35184 | 37732 ft | 416 kts | 254° |
| 2026-05-08 15:19 | 40.85125 | 52.27696 | 37991 ft | 417 kts | 255° |
| 2026-05-08 15:20 | 40.84133 | 52.21453 | 38113 ft | 419 kts | 255° |
| 2026-05-08 15:20 | 40.82738 | 52.12720 | 38109 ft | 416 kts | 255° |
| 2026-05-08 15:21 | 40.81741 | 52.06504 | 38123 ft | 416 kts | 254° |
| 2026-05-08 15:21 | 40.80532 | 51.99011 | 38120 ft | 418 kts | 254° |
| 2026-05-08 15:22 | 40.79314 | 51.91482 | 38110 ft | 420 kts | 255° |
| 2026-05-08 15:22 | 40.78090 | 51.83949 | 38116 ft | 420 kts | 254° |
| 2026-05-08 15:23 | 40.76859 | 51.76410 | 38113 ft | 420 kts | 254° |
| 2026-05-08 15:23 | 40.75623 | 51.68876 | 38113 ft | 420 kts | 254° |
| 2026-05-08 15:24 | 40.74382 | 51.61342 | 38116 ft | 420 kts | 254° |
| 2026-05-08 15:24 | 40.73143 | 51.53853 | 38116 ft | 421 kts | 254° |
| 2026-05-08 15:25 | 40.72361 | 51.46178 | 38119 ft | 424 kts | 262° |
| 2026-05-08 15:25 | 40.72002 | 51.38401 | 38118 ft | 425 kts | 263° |
| 2026-05-08 15:26 | 40.71705 | 51.30609 | 38118 ft | 425 kts | 263° |
| 2026-05-08 15:26 | 40.71403 | 51.22815 | 38126 ft | 427 kts | 263° |
| 2026-05-08 15:27 | 40.71085 | 51.15024 | 38123 ft | 428 kts | 263° |
| 2026-05-08 15:27 | 40.70755 | 51.07183 | 38122 ft | 428 kts | 263° |
| 2026-05-08 15:28 | 40.70420 | 50.99346 | 38122 ft | 428 kts | 263° |
| 2026-05-08 15:28 | 40.70079 | 50.91510 | 38120 ft | 428 kts | 262° |
| 2026-05-08 15:29 | 40.69732 | 50.83664 | 38111 ft | 429 kts | 262° |
| 2026-05-08 15:29 | 40.69379 | 50.75799 | 38117 ft | 430 kts | 262° |
| 2026-05-08 15:30 | 40.69023 | 50.67970 | 38120 ft | 430 kts | 263° |
| 2026-05-08 15:30 | 40.68659 | 50.60084 | 38122 ft | 432 kts | 263° |
| 2026-05-08 15:31 | 40.68288 | 50.52173 | 38115 ft | 433 kts | 262° |
| 2026-05-08 15:31 | 40.67912 | 50.44258 | 38114 ft | 433 kts | 262° |
| 2026-05-08 15:32 | 40.67535 | 50.36338 | 38118 ft | 433 kts | 262° |
| 2026-05-08 15:32 | 40.67144 | 50.28428 | 38123 ft | 433 kts | 262° |
| 2026-05-08 15:33 | 40.66749 | 50.20520 | 38119 ft | 433 kts | 262° |
| 2026-05-08 15:33 | 40.66351 | 50.12656 | 38126 ft | 433 kts | 262° |
| 2026-05-08 15:34 | 40.65946 | 50.04745 | 38127 ft | 433 kts | 263° |
| 2026-05-08 15:34 | 40.65536 | 49.96825 | 38120 ft | 433 kts | 263° |
| 2026-05-08 15:35 | 40.65121 | 49.88896 | 38122 ft | 433 kts | 263° |
| 2026-05-08 15:35 | 40.64700 | 49.80973 | 38118 ft | 433 kts | 263° |
| 2026-05-08 15:36 | 40.64273 | 49.73050 | 38118 ft | 433 kts | 263° |
| 2026-05-08 15:36 | 40.63843 | 49.65185 | 38121 ft | 434 kts | 263° |
| 2026-05-08 15:37 | 40.63405 | 49.57252 | 38122 ft | 435 kts | 263° |
| 2026-05-08 15:37 | 40.62961 | 49.49311 | 38125 ft | 434 kts | 263° |
| 2026-05-08 15:38 | 40.62512 | 49.41381 | 38130 ft | 434 kts | 263° |
| 2026-05-08 15:38 | 40.62057 | 49.33448 | 38129 ft | 434 kts | 263° |
| 2026-05-08 15:39 | 40.61597 | 49.25516 | 38133 ft | 435 kts | 263° |
| 2026-05-08 15:39 | 40.61136 | 49.17552 | 38135 ft | 437 kts | 263° |
| 2026-05-08 15:40 | 40.60934 | 49.09553 | 38140 ft | 438 kts | 266° |
| 2026-05-08 15:40 | 40.60856 | 49.01596 | 38140 ft | 437 kts | 266° |
| 2026-05-08 15:41 | 40.60741 | 48.93589 | 38150 ft | 438 kts | 265° |
| 2026-05-08 15:41 | 40.60586 | 48.85587 | 38148 ft | 437 kts | 265° |
| 2026-05-08 15:42 | 40.60413 | 48.77588 | 38149 ft | 437 kts | 265° |
| 2026-05-08 15:42 | 40.60234 | 48.69593 | 38155 ft | 437 kts | 265° |
| 2026-05-08 15:43 | 40.60052 | 48.61604 | 38158 ft | 437 kts | 265° |
| 2026-05-08 15:43 | 40.59867 | 48.53613 | 38157 ft | 437 kts | 265° |
| 2026-05-08 15:44 | 40.59675 | 48.45670 | 38163 ft | 437 kts | 265° |
| 2026-05-08 15:44 | 40.59474 | 48.37605 | 38158 ft | 439 kts | 265° |
| 2026-05-08 15:45 | 40.59270 | 48.29603 | 38157 ft | 440 kts | 265° |
| 2026-05-08 15:45 | 40.59060 | 48.21546 | 38162 ft | 440 kts | 265° |
| 2026-05-08 15:46 | 40.58845 | 48.13491 | 38161 ft | 440 kts | 265° |
| 2026-05-08 15:46 | 40.58623 | 48.05487 | 38162 ft | 440 kts | 264° |
| 2026-05-08 15:47 | 40.58392 | 47.97414 | 38153 ft | 441 kts | 264° |
| 2026-05-08 15:47 | 40.58309 | 47.89332 | 38159 ft | 444 kts | 269° |
| 2026-05-08 15:48 | 40.58838 | 47.77097 | 38158 ft | 447 kts | 270° |
| 2026-05-08 15:49 | 40.59166 | 47.68988 | 38159 ft | 446 kts | 269° |
| 2026-05-08 15:49 | 40.59435 | 47.60832 | 38162 ft | 446 kts | 269° |
| 2026-05-08 15:50 | 40.59681 | 47.52649 | 38150 ft | 447 kts | 269° |
| 2026-05-08 15:50 | 40.59919 | 47.44502 | 38153 ft | 447 kts | 269° |
| 2026-05-08 15:51 | 40.60155 | 47.36329 | 38162 ft | 447 kts | 269° |
| 2026-05-08 15:51 | 40.60386 | 47.28157 | 38162 ft | 447 kts | 269° |
| 2026-05-08 15:52 | 40.60623 | 47.19980 | 38150 ft | 447 kts | 270° |
| 2026-05-08 15:52 | 40.61322 | 47.11812 | 38168 ft | 449 kts | 274° |
| 2026-05-08 15:53 | 40.62152 | 47.03646 | 38161 ft | 450 kts | 274° |
| 2026-05-08 15:53 | 40.63002 | 46.95447 | 38156 ft | 453 kts | 274° |
| 2026-05-08 15:54 | 40.63843 | 46.87226 | 38153 ft | 454 kts | 274° |
| 2026-05-08 15:54 | 40.64669 | 46.79046 | 38160 ft | 454 kts | 274° |
| 2026-05-08 15:55 | 40.65492 | 46.70809 | 38162 ft | 453 kts | 274° |
| 2026-05-08 15:55 | 40.66717 | 46.58432 | 38160 ft | 455 kts | 274° |
| 2026-05-08 15:56 | 40.67529 | 46.50151 | 38161 ft | 456 kts | 275° |
| 2026-05-08 15:56 | 40.68337 | 46.41856 | 38157 ft | 456 kts | 275° |
| 2026-05-08 15:57 | 40.69136 | 46.33596 | 38157 ft | 456 kts | 275° |
| 2026-05-08 15:57 | 40.69932 | 46.25294 | 38170 ft | 456 kts | 275° |
| 2026-05-08 15:58 | 40.70723 | 46.16977 | 38162 ft | 458 kts | 275° |
| 2026-05-08 15:58 | 40.71510 | 46.08642 | 38163 ft | 458 kts | 275° |
| 2026-05-08 15:59 | 40.72291 | 46.00311 | 38171 ft | 458 kts | 274° |
| 2026-05-08 15:59 | 40.73060 | 45.92029 | 38190 ft | 458 kts | 275° |
| 2026-05-08 16:00 | 40.73830 | 45.83682 | 38201 ft | 458 kts | 275° |
| 2026-05-08 16:00 | 40.74593 | 45.75333 | 38201 ft | 459 kts | 275° |
| 2026-05-08 16:01 | 40.75352 | 45.66963 | 38206 ft | 459 kts | 275° |
| 2026-05-08 16:01 | 40.76100 | 45.58653 | 38205 ft | 459 kts | 275° |
| 2026-05-08 16:02 | 40.76849 | 45.50273 | 38206 ft | 459 kts | 275° |
| 2026-05-08 16:02 | 40.77392 | 45.41890 | 38219 ft | 459 kts | 271° |
| 2026-05-08 16:03 | 40.77701 | 45.33476 | 38215 ft | 459 kts | 271° |
| 2026-05-08 16:03 | 40.78022 | 45.25057 | 38226 ft | 460 kts | 271° |
| 2026-05-08 16:04 | 40.78380 | 45.16641 | 38225 ft | 459 kts | 272° |
| 2026-05-08 16:04 | 40.78752 | 45.08217 | 38224 ft | 459 kts | 272° |
| 2026-05-08 16:05 | 40.79119 | 44.99803 | 38236 ft | 460 kts | 272° |
| 2026-05-08 16:05 | 40.79478 | 44.91354 | 38236 ft | 461 kts | 272° |
| 2026-05-08 16:06 | 40.79830 | 44.82901 | 38241 ft | 461 kts | 272° |
| 2026-05-08 16:06 | 40.80174 | 44.74500 | 38244 ft | 461 kts | 272° |
| 2026-05-08 16:07 | 40.80514 | 44.66045 | 38244 ft | 461 kts | 272° |
| 2026-05-08 16:07 | 40.80848 | 44.57594 | 38253 ft | 461 kts | 272° |
| 2026-05-08 16:08 | 40.81177 | 44.49121 | 38251 ft | 462 kts | 272° |
| 2026-05-08 16:08 | 40.81500 | 44.40640 | 38251 ft | 462 kts | 272° |
| 2026-05-08 16:09 | 40.81763 | 44.33580 | 38256 ft | 463 kts | 272° |
| 2026-05-08 16:09 | 40.82073 | 44.25103 | 38251 ft | 462 kts | 272° |
| 2026-05-08 16:10 | 40.82426 | 44.15247 | 38250 ft | 462 kts | 272° |
| 2026-05-08 16:10 | 40.82677 | 44.08129 | 38246 ft | 463 kts | 272° |
| 2026-05-08 16:11 | 40.82967 | 43.99695 | 38238 ft | 463 kts | 272° |
| 2026-05-08 16:11 | 40.83253 | 43.91209 | 38232 ft | 462 kts | 272° |
| 2026-05-08 16:12 | 40.83534 | 43.82703 | 38377 ft | 464 kts | 272° |
| 2026-05-08 16:12 | 40.83674 | 43.78443 | 38505 ft | 464 kts | 272° |
| 2026-05-08 16:12 | 40.83812 | 43.74173 | 38656 ft | 465 kts | 272° |
| 2026-05-08 16:13 | 40.83948 | 43.69907 | 38819 ft | 464 kts | 272° |
| 2026-05-08 16:13 | 40.84094 | 43.65655 | 38978 ft | 463 kts | 273° |
| 2026-05-08 16:13 | 40.84303 | 43.61458 | 39101 ft | 463 kts | 274° |
| 2026-05-08 16:13 | 40.84554 | 43.57217 | 39208 ft | 463 kts | 274° |
| 2026-05-08 16:14 | 40.85074 | 43.48724 | 39413 ft | 464 kts | 274° |
| 2026-05-08 16:14 | 40.85324 | 43.44472 | 39530 ft | 463 kts | 274° |
| 2026-05-08 16:14 | 40.85565 | 43.40220 | 39647 ft | 463 kts | 274° |
| 2026-05-08 16:15 | 40.85799 | 43.35974 | 39771 ft | 463 kts | 274° |
| 2026-05-08 16:15 | 40.86029 | 43.31731 | 39883 ft | 463 kts | 274° |
| 2026-05-08 16:15 | 40.86255 | 43.27492 | 39988 ft | 463 kts | 274° |
| 2026-05-08 16:15 | 40.86479 | 43.23255 | 40095 ft | 463 kts | 274° |
| 2026-05-08 16:16 | 40.86921 | 43.14818 | 40247 ft | 464 kts | 273° |
| 2026-05-08 16:16 | 40.87360 | 43.06349 | 40252 ft | 460 kts | 273° |
| 2026-05-08 16:17 | 40.87790 | 42.97935 | 40254 ft | 458 kts | 273° |
| 2026-05-08 16:17 | 40.88214 | 42.89526 | 40261 ft | 458 kts | 274° |
| 2026-05-08 16:18 | 40.88631 | 42.81119 | 40259 ft | 458 kts | 274° |
| 2026-05-08 16:18 | 40.89042 | 42.72723 | 40257 ft | 458 kts | 274° |
| 2026-05-08 16:19 | 40.89447 | 42.64327 | 40257 ft | 458 kts | 274° |
| 2026-05-08 16:19 | 40.89845 | 42.55930 | 40252 ft | 458 kts | 274° |
| 2026-05-08 16:20 | 40.90237 | 42.47538 | 40249 ft | 457 kts | 274° |
| 2026-05-08 16:20 | 40.90620 | 42.39199 | 40238 ft | 457 kts | 274° |
| 2026-05-08 16:21 | 40.91000 | 42.30814 | 40230 ft | 457 kts | 274° |
| 2026-05-08 16:21 | 40.91373 | 42.22439 | 40229 ft | 456 kts | 274° |
| 2026-05-08 16:22 | 40.91740 | 42.14072 | 40227 ft | 456 kts | 274° |
| 2026-05-08 16:22 | 40.92100 | 42.05707 | 40220 ft | 456 kts | 274° |
| 2026-05-08 16:23 | 40.92454 | 41.97335 | 40220 ft | 456 kts | 274° |
| 2026-05-08 16:23 | 40.92802 | 41.88967 | 40223 ft | 456 kts | 273° |
| 2026-05-08 16:24 | 40.93145 | 41.80583 | 40218 ft | 456 kts | 274° |
| 2026-05-08 16:24 | 40.93481 | 41.72217 | 40217 ft | 455 kts | 273° |
| 2026-05-08 16:25 | 40.93808 | 41.63923 | 40220 ft | 454 kts | 273° |
| 2026-05-08 16:25 | 40.94131 | 41.55569 | 40217 ft | 454 kts | 273° |
| 2026-05-08 16:26 | 40.94449 | 41.47204 | 40221 ft | 454 kts | 273° |
| 2026-05-08 16:26 | 40.94761 | 41.38861 | 40223 ft | 454 kts | 273° |
| 2026-05-08 16:27 | 40.95065 | 41.30511 | 40225 ft | 454 kts | 273° |
| 2026-05-08 16:27 | 40.95364 | 41.22164 | 40231 ft | 454 kts | 273° |
| 2026-05-08 16:28 | 40.95656 | 41.13863 | 40218 ft | 454 kts | 273° |
| 2026-05-08 16:28 | 40.95943 | 41.05520 | 40205 ft | 454 kts | 273° |
| 2026-05-08 16:29 | 40.96224 | 40.97185 | 40204 ft | 454 kts | 273° |
| 2026-05-08 16:29 | 40.96499 | 40.88842 | 40198 ft | 454 kts | 273° |
| 2026-05-08 16:30 | 40.96769 | 40.80497 | 40198 ft | 454 kts | 273° |
| 2026-05-08 16:30 | 40.97030 | 40.72150 | 40194 ft | 453 kts | 273° |
| 2026-05-08 16:31 | 40.97285 | 40.63817 | 40196 ft | 454 kts | 273° |
| 2026-05-08 16:31 | 40.97535 | 40.55472 | 40189 ft | 454 kts | 273° |
| 2026-05-08 16:32 | 40.97778 | 40.47188 | 40189 ft | 454 kts | 273° |
| 2026-05-08 16:32 | 40.98016 | 40.38847 | 40185 ft | 454 kts | 273° |
| 2026-05-08 16:33 | 40.98249 | 40.30482 | 40184 ft | 454 kts | 273° |
| 2026-05-08 16:33 | 40.98475 | 40.22119 | 40179 ft | 454 kts | 273° |
| 2026-05-08 16:34 | 40.98699 | 40.13773 | 40180 ft | 454 kts | 273° |
| 2026-05-08 16:34 | 40.98908 | 40.05409 | 40179 ft | 454 kts | 273° |
| 2026-05-08 16:35 | 40.99110 | 39.97095 | 40180 ft | 455 kts | 273° |
| 2026-05-08 16:35 | 40.99309 | 39.88713 | 40183 ft | 455 kts | 273° |
| 2026-05-08 16:36 | 40.99540 | 39.80321 | 40180 ft | 455 kts | 276° |
| 2026-05-08 16:36 | 41.00233 | 39.72062 | 40186 ft | 454 kts | 278° |
| 2026-05-08 16:37 | 41.01024 | 39.63755 | 40185 ft | 454 kts | 278° |
| 2026-05-08 16:37 | 41.01827 | 39.55459 | 40183 ft | 454 kts | 278° |
| 2026-05-08 16:38 | 41.02618 | 39.47162 | 40184 ft | 453 kts | 278° |
| 2026-05-08 16:38 | 41.03395 | 39.38883 | 40181 ft | 452 kts | 278° |
| 2026-05-08 16:39 | 41.04159 | 39.30669 | 40175 ft | 452 kts | 278° |
| 2026-05-08 16:39 | 41.04921 | 39.22407 | 40175 ft | 452 kts | 278° |
| 2026-05-08 16:40 | 41.05678 | 39.14137 | 40173 ft | 452 kts | 278° |
| 2026-05-08 16:40 | 41.06441 | 39.05877 | 40170 ft | 452 kts | 278° |
| 2026-05-08 16:41 | 41.07204 | 38.97607 | 40165 ft | 452 kts | 278° |
| 2026-05-08 16:42 | 41.08337 | 38.85201 | 40163 ft | 452 kts | 278° |
| 2026-05-08 16:42 | 41.09082 | 38.76942 | 40167 ft | 450 kts | 278° |
| 2026-05-08 16:43 | 41.09820 | 38.68714 | 40170 ft | 449 kts | 278° |
| 2026-05-08 16:43 | 41.10541 | 38.60488 | 40170 ft | 449 kts | 278° |
| 2026-05-08 16:44 | 41.11231 | 38.52261 | 40173 ft | 449 kts | 278° |
| 2026-05-08 16:44 | 41.11912 | 38.44032 | 40172 ft | 449 kts | 278° |
| 2026-05-08 16:45 | 41.12588 | 38.35858 | 40179 ft | 449 kts | 278° |
| 2026-05-08 16:45 | 41.13265 | 38.27629 | 40181 ft | 449 kts | 278° |
| 2026-05-08 16:46 | 41.13944 | 38.19395 | 40181 ft | 449 kts | 278° |
| 2026-05-08 16:46 | 41.14613 | 38.11169 | 40178 ft | 448 kts | 278° |
| 2026-05-08 16:47 | 41.15274 | 38.02959 | 40182 ft | 446 kts | 278° |
| 2026-05-08 16:47 | 41.15929 | 37.94774 | 40172 ft | 446 kts | 278° |
| 2026-05-08 16:48 | 41.16578 | 37.86629 | 40168 ft | 446 kts | 278° |
| 2026-05-08 16:48 | 41.17269 | 37.78447 | 40163 ft | 446 kts | 279° |
| 2026-05-08 16:49 | 41.17971 | 37.70263 | 40144 ft | 445 kts | 279° |
| 2026-05-08 16:49 | 41.18662 | 37.62089 | 40157 ft | 445 kts | 279° |
| 2026-05-08 16:50 | 41.19193 | 37.53942 | 40145 ft | 446 kts | 276° |
| 2026-05-08 16:50 | 41.19696 | 37.45742 | 40137 ft | 445 kts | 278° |
| 2026-05-08 16:51 | 41.20304 | 37.37572 | 40151 ft | 444 kts | 278° |
| 2026-05-08 16:51 | 41.20922 | 37.29416 | 40153 ft | 444 kts | 278° |
| 2026-05-08 16:52 | 41.21525 | 37.21264 | 40153 ft | 444 kts | 278° |
| 2026-05-08 16:52 | 41.22151 | 37.13116 | 40159 ft | 443 kts | 278° |
| 2026-05-08 16:53 | 41.23108 | 37.00892 | 40156 ft | 443 kts | 278° |
| 2026-05-08 16:53 | 41.23733 | 36.92737 | 40158 ft | 443 kts | 278° |
| 2026-05-08 16:54 | 41.24346 | 36.84620 | 40157 ft | 443 kts | 278° |
| 2026-05-08 16:54 | 41.24956 | 36.76465 | 40151 ft | 443 kts | 278° |
| 2026-05-08 16:55 | 41.25559 | 36.68328 | 40156 ft | 442 kts | 278° |
| 2026-05-08 16:55 | 41.26156 | 36.60182 | 40155 ft | 442 kts | 278° |
| 2026-05-08 16:56 | 41.27296 | 36.52211 | 40165 ft | 437 kts | 289° |
| 2026-05-08 16:56 | 41.29150 | 36.44517 | 40159 ft | 437 kts | 291° |
| 2026-05-08 16:57 | 41.31102 | 36.36911 | 40160 ft | 437 kts | 291° |
| 2026-05-08 16:57 | 41.33068 | 36.29264 | 40154 ft | 437 kts | 291° |
| 2026-05-08 16:58 | 41.35015 | 36.21608 | 40157 ft | 436 kts | 291° |
| 2026-05-08 16:58 | 41.36622 | 36.15243 | 40158 ft | 436 kts | 291° |
| 2026-05-08 16:59 | 41.38864 | 36.06328 | 40154 ft | 436 kts | 291° |
| 2026-05-08 16:59 | 41.40785 | 35.98662 | 40140 ft | 436 kts | 291° |
| 2026-05-08 17:00 | 41.42390 | 35.92243 | 40151 ft | 436 kts | 291° |
| 2026-05-08 17:00 | 41.44287 | 35.84629 | 40152 ft | 435 kts | 290° |
| 2026-05-08 17:01 | 41.46191 | 35.76963 | 40149 ft | 435 kts | 290° |
| 2026-05-08 17:01 | 41.48090 | 35.69294 | 40145 ft | 435 kts | 290° |
| 2026-05-08 17:02 | 41.49983 | 35.61626 | 40143 ft | 435 kts | 290° |
| 2026-05-08 17:02 | 41.51872 | 35.53947 | 40144 ft | 435 kts | 290° |
| 2026-05-08 17:03 | 41.53754 | 35.46269 | 40146 ft | 435 kts | 290° |
| 2026-05-08 17:03 | 41.55632 | 35.38586 | 40137 ft | 435 kts | 290° |
| 2026-05-08 17:04 | 41.57502 | 35.30906 | 40146 ft | 435 kts | 290° |
| 2026-05-08 17:04 | 41.59365 | 35.23231 | 40140 ft | 433 kts | 290° |
| 2026-05-08 17:05 | 41.61203 | 35.15633 | 40147 ft | 432 kts | 290° |
| 2026-05-08 17:05 | 41.63048 | 35.07984 | 40137 ft | 432 kts | 290° |
| 2026-05-08 17:06 | 41.64886 | 35.00335 | 40143 ft | 431 kts | 290° |
| 2026-05-08 17:06 | 41.66713 | 34.92708 | 40147 ft | 430 kts | 290° |
| 2026-05-08 17:07 | 41.68535 | 34.85082 | 40149 ft | 431 kts | 290° |
| 2026-05-08 17:07 | 41.70356 | 34.77439 | 40151 ft | 431 kts | 290° |
| 2026-05-08 17:08 | 41.72153 | 34.69857 | 40146 ft | 429 kts | 289° |
| 2026-05-08 17:08 | 41.73952 | 34.62242 | 40144 ft | 428 kts | 289° |
| 2026-05-08 17:09 | 41.75741 | 34.54639 | 40143 ft | 428 kts | 289° |
| 2026-05-08 17:09 | 41.77530 | 34.47020 | 40149 ft | 428 kts | 289° |
| 2026-05-08 17:10 | 41.79314 | 34.39401 | 40149 ft | 427 kts | 289° |
| 2026-05-08 17:10 | 41.81083 | 34.31816 | 40152 ft | 426 kts | 289° |
| 2026-05-08 17:11 | 41.82848 | 34.24225 | 40147 ft | 427 kts | 289° |
| 2026-05-08 17:11 | 41.84599 | 34.16668 | 40150 ft | 426 kts | 289° |
| 2026-05-08 17:12 | 41.86350 | 34.09079 | 40148 ft | 425 kts | 289° |
| 2026-05-08 17:12 | 41.88101 | 34.01469 | 40146 ft | 425 kts | 289° |
| 2026-05-08 17:13 | 41.89839 | 33.93889 | 40149 ft | 425 kts | 289° |
| 2026-05-08 17:13 | 41.91576 | 33.86286 | 40141 ft | 425 kts | 289° |
| 2026-05-08 17:14 | 41.93298 | 33.78725 | 40140 ft | 425 kts | 289° |
| 2026-05-08 17:14 | 41.95028 | 33.71102 | 40136 ft | 425 kts | 289° |
| 2026-05-08 17:15 | 41.96627 | 33.63490 | 40138 ft | 426 kts | 286° |
| 2026-05-08 17:15 | 41.98067 | 33.55747 | 40137 ft | 426 kts | 286° |
| 2026-05-08 17:16 | 41.99508 | 33.48005 | 40128 ft | 426 kts | 286° |
| 2026-05-08 17:16 | 42.00964 | 33.40324 | 40123 ft | 426 kts | 286° |
| 2026-05-08 17:17 | 42.02435 | 33.32611 | 40131 ft | 425 kts | 286° |
| 2026-05-08 17:17 | 42.03902 | 33.24895 | 40131 ft | 425 kts | 286° |
| 2026-05-08 17:18 | 42.05362 | 33.17180 | 40114 ft | 425 kts | 285° |
| 2026-05-08 17:18 | 42.06819 | 33.09448 | 40117 ft | 426 kts | 285° |
| 2026-05-08 17:19 | 42.08320 | 33.01733 | 40113 ft | 426 kts | 287° |
| 2026-05-08 17:19 | 42.09915 | 32.94046 | 40116 ft | 426 kts | 287° |
| 2026-05-08 17:20 | 42.11501 | 32.86392 | 40114 ft | 426 kts | 287° |
| 2026-05-08 17:20 | 42.13078 | 32.78673 | 40113 ft | 427 kts | 286° |
| 2026-05-08 17:21 | 42.14633 | 32.70990 | 40111 ft | 427 kts | 286° |
| 2026-05-08 17:21 | 42.16186 | 32.63282 | 40109 ft | 427 kts | 286° |
| 2026-05-08 17:22 | 42.17746 | 32.55532 | 40107 ft | 427 kts | 286° |
| 2026-05-08 17:22 | 42.19290 | 32.47789 | 40112 ft | 427 kts | 286° |
| 2026-05-08 17:23 | 42.20831 | 32.40026 | 40107 ft | 428 kts | 286° |
| 2026-05-08 17:23 | 42.22364 | 32.32283 | 40104 ft | 428 kts | 286° |
| 2026-05-08 17:24 | 42.23889 | 32.24561 | 40108 ft | 428 kts | 285° |
| 2026-05-08 17:24 | 42.25418 | 32.16791 | 40107 ft | 428 kts | 285° |
| 2026-05-08 17:25 | 42.26941 | 32.09008 | 40108 ft | 428 kts | 285° |
| 2026-05-08 17:25 | 42.28465 | 32.01208 | 40107 ft | 429 kts | 285° |
| 2026-05-08 17:26 | 42.29973 | 31.93450 | 40107 ft | 429 kts | 285° |
| 2026-05-08 17:26 | 42.31483 | 31.85663 | 40106 ft | 429 kts | 285° |
| 2026-05-08 17:27 | 42.32994 | 31.77849 | 40106 ft | 430 kts | 285° |
| 2026-05-08 17:27 | 42.34498 | 31.70037 | 40099 ft | 430 kts | 285° |
| 2026-05-08 17:28 | 42.35991 | 31.62251 | 40104 ft | 429 kts | 285° |
| 2026-05-08 17:28 | 42.37484 | 31.54434 | 40101 ft | 429 kts | 285° |
| 2026-05-08 17:29 | 42.38973 | 31.46604 | 40100 ft | 429 kts | 284° |
| 2026-05-08 17:29 | 42.40457 | 31.38771 | 40101 ft | 430 kts | 284° |
| 2026-05-08 17:30 | 42.41935 | 31.30938 | 40101 ft | 430 kts | 284° |
| 2026-05-08 17:30 | 42.43408 | 31.23099 | 40101 ft | 430 kts | 284° |
| 2026-05-08 17:31 | 42.44876 | 31.15254 | 40099 ft | 430 kts | 284° |
| 2026-05-08 17:31 | 42.46342 | 31.07395 | 40097 ft | 430 kts | 284° |
| 2026-05-08 17:32 | 42.47791 | 30.99571 | 40098 ft | 430 kts | 284° |
| 2026-05-08 17:32 | 42.49241 | 30.91706 | 40098 ft | 430 kts | 284° |
| 2026-05-08 17:33 | 42.50688 | 30.83827 | 40095 ft | 431 kts | 283° |
| 2026-05-08 17:33 | 42.52132 | 30.75934 | 40095 ft | 432 kts | 283° |
| 2026-05-08 17:34 | 42.53573 | 30.68024 | 40092 ft | 432 kts | 283° |
| 2026-05-08 17:34 | 42.55009 | 30.60112 | 40087 ft | 432 kts | 283° |
| 2026-05-08 17:35 | 42.56438 | 30.52200 | 40092 ft | 432 kts | 283° |
| 2026-05-08 17:35 | 42.57865 | 30.44273 | 40085 ft | 433 kts | 283° |
| 2026-05-08 17:36 | 42.59288 | 30.36328 | 40086 ft | 433 kts | 283° |
| 2026-05-08 17:36 | 42.60945 | 30.28465 | 40084 ft | 434 kts | 291° |
| 2026-05-08 17:37 | 42.63950 | 30.21364 | 40087 ft | 436 kts | 303° |
| 2026-05-08 17:37 | 42.67598 | 30.14760 | 40085 ft | 438 kts | 306° |
| 2026-05-08 17:38 | 42.71325 | 30.08263 | 40079 ft | 439 kts | 306° |
| 2026-05-08 17:38 | 42.75070 | 30.01705 | 40076 ft | 439 kts | 305° |
| 2026-05-08 17:39 | 42.78795 | 29.95120 | 40083 ft | 439 kts | 305° |
| 2026-05-08 17:39 | 42.82515 | 29.88508 | 40066 ft | 440 kts | 305° |
| 2026-05-08 17:40 | 42.86240 | 29.81871 | 40075 ft | 440 kts | 305° |
| 2026-05-08 17:40 | 42.89935 | 29.75274 | 40076 ft | 440 kts | 305° |
| 2026-05-08 17:41 | 42.93647 | 29.68632 | 40067 ft | 441 kts | 305° |
| 2026-05-08 17:41 | 42.97368 | 29.61962 | 40073 ft | 441 kts | 305° |
| 2026-05-08 17:42 | 43.01083 | 29.55285 | 40070 ft | 441 kts | 305° |
| 2026-05-08 17:42 | 43.04794 | 29.48602 | 40069 ft | 441 kts | 305° |
| 2026-05-08 17:43 | 43.08502 | 29.41908 | 40069 ft | 441 kts | 305° |
| 2026-05-08 17:43 | 43.12205 | 29.35209 | 40069 ft | 442 kts | 305° |
| 2026-05-08 17:44 | 43.15912 | 29.28483 | 40068 ft | 447 kts | 305° |
| 2026-05-08 17:44 | 43.19670 | 29.21652 | 40072 ft | 448 kts | 304° |
| 2026-05-08 17:45 | 43.22814 | 29.15928 | 40068 ft | 449 kts | 304° |
| 2026-05-08 17:45 | 43.26540 | 29.09128 | 40067 ft | 449 kts | 304° |
| 2026-05-08 17:46 | 43.30290 | 29.02268 | 40067 ft | 449 kts | 304° |
| 2026-05-08 17:46 | 43.34039 | 28.95394 | 40069 ft | 449 kts | 304° |
| 2026-05-08 17:47 | 43.37784 | 28.88509 | 40075 ft | 450 kts | 304° |
| 2026-05-08 17:47 | 43.41529 | 28.81609 | 40067 ft | 450 kts | 304° |
| 2026-05-08 17:48 | 43.45266 | 28.74708 | 40065 ft | 449 kts | 304° |
| 2026-05-08 17:48 | 43.48999 | 28.67800 | 40065 ft | 450 kts | 304° |
| 2026-05-08 17:49 | 43.52734 | 28.60868 | 40065 ft | 451 kts | 304° |
| 2026-05-08 17:49 | 43.56467 | 28.53926 | 40060 ft | 451 kts | 304° |
| 2026-05-08 17:50 | 43.60175 | 28.47014 | 40053 ft | 451 kts | 304° |
| 2026-05-08 17:50 | 43.63694 | 28.39860 | 40053 ft | 449 kts | 298° |
| 2026-05-08 17:51 | 43.66830 | 28.32388 | 40044 ft | 449 kts | 297° |
| 2026-05-08 17:51 | 43.69903 | 28.24862 | 40045 ft | 450 kts | 297° |
| 2026-05-08 17:52 | 43.72960 | 28.17321 | 40046 ft | 450 kts | 297° |
| 2026-05-08 17:53 | 43.77530 | 28.06034 | 40038 ft | 450 kts | 297° |
| 2026-05-08 17:53 | 43.80588 | 27.98466 | 40034 ft | 450 kts | 297° |
| 2026-05-08 17:54 | 43.83637 | 27.90901 | 40025 ft | 450 kts | 297° |
| 2026-05-08 17:54 | 43.86685 | 27.83322 | 40030 ft | 450 kts | 297° |
| 2026-05-08 17:55 | 43.89726 | 27.75735 | 40024 ft | 450 kts | 297° |
| 2026-05-08 17:55 | 43.92765 | 27.68134 | 40020 ft | 450 kts | 297° |
| 2026-05-08 17:56 | 43.95781 | 27.60571 | 40020 ft | 450 kts | 297° |
| 2026-05-08 17:56 | 43.98807 | 27.52963 | 40013 ft | 450 kts | 297° |
| 2026-05-08 17:57 | 44.01831 | 27.45337 | 40005 ft | 451 kts | 297° |
| 2026-05-08 17:57 | 44.04851 | 27.37703 | 40007 ft | 451 kts | 296° |
| 2026-05-08 17:58 | 44.07865 | 27.30064 | 40001 ft | 451 kts | 296° |
| 2026-05-08 17:58 | 44.10878 | 27.22405 | 40005 ft | 451 kts | 296° |
| 2026-05-08 17:59 | 44.13871 | 27.14774 | 40004 ft | 451 kts | 296° |
| 2026-05-08 17:59 | 44.16885 | 27.07073 | 39998 ft | 451 kts | 296° |
| 2026-05-08 18:00 | 44.19887 | 26.99379 | 39999 ft | 451 kts | 296° |
| 2026-05-08 18:00 | 44.24360 | 26.87878 | 39995 ft | 451 kts | 296° |
| 2026-05-08 18:01 | 44.27337 | 26.80195 | 39993 ft | 451 kts | 296° |
| 2026-05-08 18:01 | 44.30325 | 26.72465 | 39988 ft | 451 kts | 296° |
| 2026-05-08 18:02 | 44.32800 | 26.66046 | 39988 ft | 451 kts | 296° |
| 2026-05-08 18:02 | 44.36271 | 26.57018 | 39990 ft | 451 kts | 296° |
| 2026-05-08 18:03 | 44.39235 | 26.49284 | 39985 ft | 451 kts | 296° |
| 2026-05-08 18:03 | 44.42180 | 26.41580 | 39985 ft | 451 kts | 296° |
| 2026-05-08 18:04 | 44.45138 | 26.33818 | 39985 ft | 451 kts | 296° |
| 2026-05-08 18:04 | 44.48090 | 26.26053 | 39981 ft | 451 kts | 296° |
| 2026-05-08 18:05 | 44.51016 | 26.18335 | 39992 ft | 450 kts | 296° |
| 2026-05-08 18:05 | 44.53947 | 26.10581 | 39994 ft | 450 kts | 296° |
| 2026-05-08 18:06 | 44.56873 | 26.02816 | 39994 ft | 450 kts | 296° |
| 2026-05-08 18:06 | 44.59794 | 25.95047 | 39992 ft | 450 kts | 296° |
| 2026-05-08 18:07 | 44.62691 | 25.87317 | 39988 ft | 450 kts | 296° |
| 2026-05-08 18:07 | 44.65599 | 25.79538 | 39984 ft | 449 kts | 296° |
| 2026-05-08 18:08 | 44.68501 | 25.71753 | 39984 ft | 449 kts | 296° |
| 2026-05-08 18:08 | 44.71398 | 25.63956 | 39981 ft | 449 kts | 295° |
| 2026-05-08 18:09 | 44.74272 | 25.56202 | 39979 ft | 449 kts | 295° |
| 2026-05-08 18:09 | 44.77157 | 25.48396 | 39982 ft | 449 kts | 295° |
| 2026-05-08 18:10 | 44.80019 | 25.40631 | 39980 ft | 448 kts | 295° |
| 2026-05-08 18:10 | 44.82910 | 25.32829 | 39989 ft | 448 kts | 296° |
| 2026-05-08 18:11 | 44.85827 | 25.25037 | 39995 ft | 449 kts | 296° |
| 2026-05-08 18:11 | 44.88720 | 25.17294 | 39989 ft | 449 kts | 296° |
| 2026-05-08 18:12 | 44.91624 | 25.09487 | 39988 ft | 448 kts | 296° |
| 2026-05-08 18:12 | 44.94515 | 25.01686 | 39989 ft | 448 kts | 295° |
| 2026-05-08 18:13 | 44.97382 | 24.93926 | 39992 ft | 448 kts | 295° |
| 2026-05-08 18:13 | 45.00247 | 24.86149 | 40004 ft | 448 kts | 295° |
| 2026-05-08 18:14 | 45.03129 | 24.78306 | 40001 ft | 448 kts | 295° |
| 2026-05-08 18:14 | 45.05983 | 24.70516 | 40010 ft | 448 kts | 295° |
| 2026-05-08 18:15 | 45.08849 | 24.62669 | 40007 ft | 447 kts | 295° |
| 2026-05-08 18:15 | 45.11684 | 24.54887 | 40007 ft | 447 kts | 295° |
| 2026-05-08 18:16 | 45.14541 | 24.47019 | 40012 ft | 447 kts | 295° |
| 2026-05-08 18:16 | 45.17369 | 24.39211 | 40021 ft | 448 kts | 295° |
| 2026-05-08 18:17 | 45.20207 | 24.31351 | 40021 ft | 448 kts | 295° |
| 2026-05-08 18:17 | 45.23047 | 24.23464 | 40028 ft | 448 kts | 295° |
| 2026-05-08 18:18 | 45.25864 | 24.15619 | 40023 ft | 447 kts | 295° |
| 2026-05-08 18:18 | 45.28689 | 24.07726 | 40041 ft | 447 kts | 295° |
| 2026-05-08 18:19 | 45.31505 | 23.99838 | 40048 ft | 447 kts | 295° |
| 2026-05-08 18:19 | 45.34305 | 23.91972 | 40048 ft | 448 kts | 295° |
| 2026-05-08 18:20 | 45.37115 | 23.84051 | 40053 ft | 448 kts | 295° |
| 2026-05-08 18:20 | 45.39905 | 23.76169 | 40053 ft | 447 kts | 295° |
| 2026-05-08 18:21 | 45.42705 | 23.68231 | 40052 ft | 447 kts | 294° |
| 2026-05-08 18:21 | 45.45477 | 23.60349 | 40053 ft | 447 kts | 294° |
| 2026-05-08 18:22 | 45.48260 | 23.52416 | 40059 ft | 447 kts | 294° |
| 2026-05-08 18:22 | 45.51039 | 23.44469 | 40063 ft | 447 kts | 294° |
| 2026-05-08 18:23 | 45.53795 | 23.36564 | 40055 ft | 447 kts | 294° |
| 2026-05-08 18:23 | 45.56568 | 23.28586 | 40055 ft | 447 kts | 294° |
| 2026-05-08 18:24 | 45.59311 | 23.20668 | 40049 ft | 447 kts | 294° |
| 2026-05-08 18:24 | 45.62068 | 23.12691 | 40057 ft | 446 kts | 294° |
| 2026-05-08 18:25 | 45.64809 | 23.04734 | 40045 ft | 445 kts | 294° |
| 2026-05-08 18:25 | 45.67521 | 22.96836 | 40039 ft | 445 kts | 294° |
| 2026-05-08 18:26 | 45.70251 | 22.88865 | 40044 ft | 445 kts | 294° |
| 2026-05-08 18:26 | 45.72970 | 22.80901 | 40035 ft | 445 kts | 294° |
| 2026-05-08 18:27 | 45.74785 | 22.75571 | 40035 ft | 445 kts | 294° |
| 2026-05-08 18:27 | 45.78377 | 22.64993 | 40035 ft | 445 kts | 294° |
| 2026-05-08 18:28 | 45.80630 | 22.58335 | 40032 ft | 445 kts | 294° |
| 2026-05-08 18:28 | 45.83769 | 22.49033 | 40032 ft | 445 kts | 294° |
| 2026-05-08 18:29 | 45.86005 | 22.42386 | 40028 ft | 445 kts | 293° |
| 2026-05-08 18:29 | 45.88694 | 22.34370 | 40029 ft | 445 kts | 293° |
| 2026-05-08 18:30 | 45.91377 | 22.26346 | 40025 ft | 445 kts | 293° |
| 2026-05-08 18:30 | 45.94040 | 22.18358 | 40026 ft | 445 kts | 293° |
| 2026-05-08 18:31 | 45.96713 | 22.10313 | 40027 ft | 446 kts | 293° |
| 2026-05-08 18:31 | 45.99381 | 22.02264 | 40023 ft | 446 kts | 293° |
| 2026-05-08 18:32 | 46.02032 | 21.94241 | 40022 ft | 445 kts | 293° |
| 2026-05-08 18:32 | 46.04686 | 21.86182 | 40023 ft | 446 kts | 293° |
| 2026-05-08 18:33 | 46.07345 | 21.78082 | 40019 ft | 446 kts | 293° |
| 2026-05-08 18:33 | 46.09979 | 21.70034 | 40021 ft | 446 kts | 293° |
| 2026-05-08 18:34 | 46.12612 | 21.61963 | 40018 ft | 446 kts | 292° |
| 2026-05-08 18:34 | 46.15255 | 21.53838 | 40014 ft | 446 kts | 292° |
| 2026-05-08 18:35 | 46.17888 | 21.45717 | 40020 ft | 446 kts | 292° |
| 2026-05-08 18:35 | 46.20512 | 21.37597 | 40025 ft | 446 kts | 292° |
| 2026-05-08 18:36 | 46.23120 | 21.29506 | 40024 ft | 446 kts | 292° |
| 2026-05-08 18:36 | 46.25736 | 21.21359 | 40022 ft | 446 kts | 292° |
| 2026-05-08 18:37 | 46.28343 | 21.13217 | 40017 ft | 447 kts | 292° |
| 2026-05-08 18:37 | 46.30936 | 21.05092 | 40019 ft | 447 kts | 292° |
| 2026-05-08 18:38 | 46.33544 | 20.96894 | 40018 ft | 447 kts | 292° |
| 2026-05-08 18:38 | 46.36125 | 20.88758 | 40031 ft | 447 kts | 292° |
| 2026-05-08 18:39 | 46.38276 | 20.81954 | 40019 ft | 447 kts | 292° |
| 2026-05-08 18:40 | 46.39239 | 20.78901 | 40024 ft | 447 kts | 292° |
| 2026-05-08 18:41 | 46.41815 | 20.70721 | 40021 ft | 448 kts | 292° |
| 2026-05-08 18:41 | 46.44402 | 20.62480 | 40022 ft | 448 kts | 292° |
| 2026-05-08 18:42 | 46.46965 | 20.54288 | 40022 ft | 448 kts | 292° |
| 2026-05-08 18:42 | 46.49539 | 20.46034 | 40021 ft | 448 kts | 292° |
| 2026-05-08 18:43 | 46.52103 | 20.37787 | 40020 ft | 448 kts | 291° |
| 2026-05-08 18:43 | 46.54629 | 20.29635 | 40020 ft | 448 kts | 291° |
| 2026-05-08 18:44 | 46.57185 | 20.21358 | 40023 ft | 448 kts | 291° |
| 2026-05-08 18:44 | 46.59717 | 20.13132 | 40023 ft | 448 kts | 291° |
| 2026-05-08 18:45 | 46.62264 | 20.04832 | 40023 ft | 448 kts | 291° |
| 2026-05-08 18:45 | 46.64791 | 19.96568 | 40027 ft | 448 kts | 291° |
| 2026-05-08 18:46 | 46.67334 | 19.88226 | 40025 ft | 448 kts | 291° |
| 2026-05-08 18:46 | 46.69843 | 19.79968 | 40029 ft | 448 kts | 291° |
| 2026-05-08 18:47 | 46.72365 | 19.71638 | 40024 ft | 447 kts | 291° |
| 2026-05-08 18:47 | 46.74857 | 19.63381 | 40029 ft | 447 kts | 291° |
| 2026-05-08 18:48 | 46.77360 | 19.55060 | 40028 ft | 447 kts | 291° |
| 2026-05-08 18:48 | 46.79853 | 19.46742 | 40035 ft | 447 kts | 291° |
| 2026-05-08 18:49 | 46.82327 | 19.38464 | 40028 ft | 446 kts | 291° |
| 2026-05-08 18:49 | 46.84809 | 19.30128 | 40029 ft | 446 kts | 291° |
| 2026-05-08 18:50 | 46.87273 | 19.21826 | 40028 ft | 446 kts | 291° |
| 2026-05-08 18:50 | 46.89742 | 19.13478 | 40029 ft | 446 kts | 291° |
| 2026-05-08 18:51 | 46.92191 | 19.05171 | 40031 ft | 447 kts | 290° |
| 2026-05-08 18:51 | 46.94650 | 18.96800 | 40031 ft | 447 kts | 290° |
| 2026-05-08 18:52 | 46.97086 | 18.88481 | 40031 ft | 447 kts | 290° |
| 2026-05-08 18:52 | 46.99537 | 18.80082 | 40034 ft | 447 kts | 290° |
| 2026-05-08 18:53 | 47.01979 | 18.71686 | 40036 ft | 448 kts | 290° |
| 2026-05-08 18:53 | 47.04401 | 18.63327 | 40036 ft | 449 kts | 290° |
| 2026-05-08 18:54 | 47.06839 | 18.54886 | 40042 ft | 449 kts | 290° |
| 2026-05-08 18:54 | 47.09270 | 18.46442 | 40042 ft | 449 kts | 290° |
| 2026-05-08 18:55 | 47.12894 | 18.33796 | 40045 ft | 448 kts | 290° |
| 2026-05-08 18:56 | 47.15292 | 18.25393 | 40052 ft | 448 kts | 290° |
| 2026-05-08 18:56 | 47.17702 | 18.16916 | 40050 ft | 448 kts | 290° |
| 2026-05-08 18:57 | 47.20086 | 18.08504 | 40055 ft | 448 kts | 290° |
| 2026-05-08 18:57 | 47.22483 | 18.00014 | 40067 ft | 448 kts | 290° |
| 2026-05-08 18:58 | 47.24863 | 17.91556 | 40058 ft | 447 kts | 290° |
| 2026-05-08 18:58 | 47.27218 | 17.83158 | 40055 ft | 447 kts | 290° |
| 2026-05-08 18:59 | 47.29582 | 17.74699 | 40054 ft | 447 kts | 290° |
| 2026-05-08 18:59 | 47.31941 | 17.66225 | 40059 ft | 447 kts | 290° |
| 2026-05-08 19:00 | 47.33896 | 17.59179 | 40043 ft | 447 kts | 290° |
| 2026-05-08 19:00 | 47.36640 | 17.49256 | 40048 ft | 447 kts | 290° |
| 2026-05-08 19:01 | 47.38984 | 17.40747 | 40050 ft | 447 kts | 290° |
| 2026-05-08 19:01 | 47.41321 | 17.32233 | 40050 ft | 447 kts | 290° |
| 2026-05-08 19:02 | 47.43650 | 17.23718 | 40042 ft | 447 kts | 290° |
| 2026-05-08 19:02 | 47.45957 | 17.15254 | 40056 ft | 447 kts | 290° |
| 2026-05-08 19:03 | 47.48271 | 17.06733 | 40058 ft | 447 kts | 290° |
| 2026-05-08 19:03 | 47.50579 | 16.98203 | 40057 ft | 447 kts | 289° |
| 2026-05-08 19:04 | 47.52885 | 16.89650 | 40057 ft | 447 kts | 289° |
| 2026-05-08 19:04 | 47.55190 | 16.81065 | 40059 ft | 450 kts | 289° |
| 2026-05-08 19:05 | 47.57496 | 16.72449 | 40059 ft | 450 kts | 289° |
| 2026-05-08 19:05 | 47.59776 | 16.63813 | 40068 ft | 450 kts | 289° |
| 2026-05-08 19:06 | 47.62043 | 16.55160 | 40063 ft | 450 kts | 289° |
| 2026-05-08 19:06 | 47.64287 | 16.46573 | 40066 ft | 450 kts | 289° |
| 2026-05-08 19:07 | 47.66545 | 16.37915 | 40067 ft | 450 kts | 289° |
| 2026-05-08 19:07 | 47.68794 | 16.29259 | 40081 ft | 450 kts | 289° |
| 2026-05-08 19:08 | 47.71038 | 16.20591 | 40070 ft | 450 kts | 289° |
| 2026-05-08 19:08 | 47.73277 | 16.11911 | 40074 ft | 451 kts | 289° |
| 2026-05-08 19:09 | 47.75515 | 16.03195 | 40075 ft | 451 kts | 289° |
| 2026-05-08 19:09 | 47.77750 | 15.94463 | 40080 ft | 452 kts | 289° |
| 2026-05-08 19:10 | 47.79977 | 15.85730 | 40085 ft | 452 kts | 288° |
| 2026-05-08 19:10 | 47.82196 | 15.76992 | 40082 ft | 452 kts | 288° |
| 2026-05-08 19:11 | 47.84411 | 15.68235 | 40080 ft | 452 kts | 288° |
| 2026-05-08 19:11 | 47.86620 | 15.59467 | 40080 ft | 453 kts | 288° |
| 2026-05-08 19:12 | 47.88826 | 15.50679 | 40079 ft | 453 kts | 288° |
| 2026-05-08 19:12 | 47.91013 | 15.41939 | 40080 ft | 452 kts | 288° |
| 2026-05-08 19:13 | 47.93208 | 15.33127 | 40079 ft | 454 kts | 288° |
| 2026-05-08 19:13 | 47.95402 | 15.24284 | 40073 ft | 454 kts | 288° |
| 2026-05-08 19:14 | 47.97589 | 15.15439 | 40074 ft | 454 kts | 288° |
| 2026-05-08 19:14 | 47.99771 | 15.06580 | 40071 ft | 454 kts | 288° |
| 2026-05-08 19:15 | 48.01947 | 14.97708 | 40073 ft | 455 kts | 288° |
| 2026-05-08 19:15 | 48.04109 | 14.88877 | 40065 ft | 456 kts | 288° |
| 2026-05-08 19:16 | 48.06289 | 14.79976 | 40063 ft | 456 kts | 289° |
| 2026-05-08 19:16 | 48.08206 | 14.72627 | 40062 ft | 456 kts | 289° |
| 2026-05-08 19:17 | 48.10553 | 14.63802 | 40061 ft | 456 kts | 289° |
| 2026-05-08 19:17 | 48.12880 | 14.54969 | 40056 ft | 456 kts | 289° |
| 2026-05-08 19:18 | 48.15185 | 14.46118 | 40053 ft | 456 kts | 289° |
| 2026-05-08 19:18 | 48.17476 | 14.37261 | 40053 ft | 456 kts | 289° |
| 2026-05-08 19:19 | 48.19749 | 14.28441 | 40045 ft | 456 kts | 289° |
| 2026-05-08 19:19 | 48.22030 | 14.19558 | 40054 ft | 456 kts | 289° |
| 2026-05-08 19:20 | 48.24301 | 14.10681 | 40049 ft | 456 kts | 289° |
| 2026-05-08 19:20 | 48.26563 | 14.01807 | 40065 ft | 456 kts | 289° |
| 2026-05-08 19:21 | 48.28818 | 13.92923 | 40059 ft | 455 kts | 289° |
| 2026-05-08 19:21 | 48.31069 | 13.84020 | 40071 ft | 456 kts | 289° |
| 2026-05-08 19:22 | 48.33313 | 13.75108 | 40059 ft | 456 kts | 289° |
| 2026-05-08 19:22 | 48.35555 | 13.66173 | 40062 ft | 456 kts | 289° |
| 2026-05-08 19:23 | 48.37772 | 13.57302 | 40058 ft | 456 kts | 288° |
| 2026-05-08 19:23 | 48.39997 | 13.48363 | 40063 ft | 456 kts | 288° |
| 2026-05-08 19:24 | 48.42214 | 13.39420 | 40066 ft | 456 kts | 289° |
| 2026-05-08 19:24 | 48.44439 | 13.30456 | 40065 ft | 457 kts | 289° |
| 2026-05-08 19:25 | 48.46785 | 13.21550 | 40059 ft | 457 kts | 290° |
| 2026-05-08 19:25 | 48.49149 | 13.12716 | 40058 ft | 457 kts | 290° |
| 2026-05-08 19:26 | 48.51506 | 13.03806 | 40061 ft | 457 kts | 290° |
| 2026-05-08 19:26 | 48.53841 | 12.94883 | 40069 ft | 457 kts | 290° |
| 2026-05-08 19:27 | 48.56169 | 12.85940 | 40073 ft | 457 kts | 290° |
| 2026-05-08 19:27 | 48.58488 | 12.76994 | 40070 ft | 457 kts | 289° |
| 2026-05-08 19:28 | 48.60703 | 12.68417 | 40075 ft | 457 kts | 289° |
| 2026-05-08 19:28 | 48.63012 | 12.59447 | 40073 ft | 457 kts | 289° |
| 2026-05-08 19:29 | 48.65207 | 12.50432 | 40074 ft | 456 kts | 284° |
| 2026-05-08 19:29 | 48.66767 | 12.41188 | 40074 ft | 455 kts | 282° |
| 2026-05-08 19:30 | 48.68215 | 12.31854 | 40074 ft | 455 kts | 282° |
| 2026-05-08 19:30 | 48.69630 | 12.22512 | 40083 ft | 455 kts | 282° |
| 2026-05-08 19:31 | 48.71042 | 12.13163 | 40083 ft | 455 kts | 282° |
| 2026-05-08 19:31 | 48.72455 | 12.03796 | 40088 ft | 455 kts | 282° |
| 2026-05-08 19:32 | 48.73860 | 11.94436 | 40091 ft | 455 kts | 282° |
| 2026-05-08 19:32 | 48.75258 | 11.85073 | 40095 ft | 455 kts | 281° |
| 2026-05-08 19:33 | 48.76639 | 11.75761 | 40100 ft | 456 kts | 281° |
| 2026-05-08 19:33 | 48.78024 | 11.66365 | 40101 ft | 456 kts | 281° |
| 2026-05-08 19:34 | 48.79402 | 11.56965 | 40102 ft | 456 kts | 281° |
| 2026-05-08 19:34 | 48.80773 | 11.47553 | 40101 ft | 456 kts | 281° |
| 2026-05-08 19:35 | 48.82135 | 11.38145 | 40099 ft | 456 kts | 281° |
| 2026-05-08 19:35 | 48.83585 | 11.28840 | 40092 ft | 457 kts | 287° |
| 2026-05-08 19:36 | 48.86390 | 11.20188 | 40078 ft | 460 kts | 304° |
| 2026-05-08 19:36 | 48.90622 | 11.12911 | 39614 ft | 460 kts | 314° |
| 2026-05-08 19:36 | 48.92980 | 11.09586 | 39015 ft | 463 kts | 315° |
| 2026-05-08 19:37 | 48.95400 | 11.06329 | 38364 ft | 466 kts | 316° |
| 2026-05-08 19:37 | 48.97843 | 11.03067 | 37678 ft | 467 kts | 316° |
| 2026-05-08 19:37 | 49.00274 | 10.99782 | 37044 ft | 467 kts | 315° |
| 2026-05-08 19:37 | 49.02693 | 10.96462 | 36382 ft | 467 kts | 315° |
| 2026-05-08 19:38 | 49.05064 | 10.93164 | 35741 ft | 467 kts | 315° |
| 2026-05-08 19:38 | 49.07454 | 10.89811 | 35096 ft | 467 kts | 315° |
| 2026-05-08 19:38 | 49.09843 | 10.86447 | 34468 ft | 467 kts | 315° |
| 2026-05-08 19:38 | 49.12230 | 10.83072 | 33791 ft | 467 kts | 314° |
| 2026-05-08 19:39 | 49.14614 | 10.79689 | 32979 ft | 467 kts | 314° |
| 2026-05-08 19:39 | 49.16997 | 10.76303 | 32151 ft | 469 kts | 314° |
| 2026-05-08 19:39 | 49.19390 | 10.72901 | 31314 ft | 470 kts | 314° |
| 2026-05-08 19:39 | 49.21748 | 10.69433 | 30468 ft | 471 kts | 311° |
| 2026-05-08 19:40 | 49.24024 | 10.65817 | 29466 ft | 472 kts | 311° |
| 2026-05-08 19:40 | 49.26295 | 10.62175 | 28578 ft | 472 kts | 311° |
| 2026-05-08 19:40 | 49.28563 | 10.58558 | 27755 ft | 470 kts | 311° |
| 2026-05-08 19:40 | 49.30820 | 10.54971 | 26921 ft | 464 kts | 311° |
| 2026-05-08 19:41 | 49.33052 | 10.51429 | 26008 ft | 459 kts | 311° |
| 2026-05-08 19:41 | 49.35231 | 10.47945 | 24886 ft | 446 kts | 310° |
| 2026-05-08 19:41 | 49.37151 | 10.44272 | 23703 ft | 434 kts | 304° |
| 2026-05-08 19:41 | 49.38854 | 10.40574 | 23319 ft | 422 kts | 303° |
| 2026-05-08 19:42 | 49.40526 | 10.36902 | 23110 ft | 424 kts | 303° |
| 2026-05-08 19:42 | 49.42209 | 10.33207 | 22772 ft | 420 kts | 303° |
| 2026-05-08 19:42 | 49.43880 | 10.29537 | 22452 ft | 418 kts | 303° |
| 2026-05-08 19:42 | 49.45543 | 10.25879 | 22097 ft | 417 kts | 303° |
| 2026-05-08 19:43 | 49.47199 | 10.22234 | 21754 ft | 415 kts | 303° |
| 2026-05-08 19:43 | 49.48849 | 10.18597 | 21396 ft | 413 kts | 303° |
| 2026-05-08 19:43 | 49.50491 | 10.14973 | 21072 ft | 412 kts | 303° |
| 2026-05-08 19:43 | 49.52124 | 10.11364 | 20732 ft | 410 kts | 303° |
| 2026-05-08 19:44 | 49.53751 | 10.07765 | 20396 ft | 408 kts | 303° |
| 2026-05-08 19:44 | 49.55371 | 10.04180 | 20065 ft | 407 kts | 303° |
| 2026-05-08 19:44 | 49.56978 | 10.00611 | 19744 ft | 405 kts | 303° |
| 2026-05-08 19:44 | 49.58578 | 9.97057 | 19398 ft | 403 kts | 303° |
| 2026-05-08 19:45 | 49.60178 | 9.93504 | 19079 ft | 402 kts | 303° |
| 2026-05-08 19:45 | 49.61747 | 9.90003 | 18758 ft | 401 kts | 303° |
| 2026-05-08 19:45 | 49.63328 | 9.86472 | 18413 ft | 400 kts | 303° |
| 2026-05-08 19:45 | 49.64904 | 9.82947 | 18066 ft | 398 kts | 303° |
| 2026-05-08 19:46 | 49.66471 | 9.79439 | 17719 ft | 396 kts | 303° |
| 2026-05-08 19:46 | 49.68033 | 9.75940 | 17395 ft | 394 kts | 303° |
| 2026-05-08 19:46 | 49.71126 | 9.68996 | 16750 ft | 391 kts | 303° |
| 2026-05-08 19:47 | 49.72664 | 9.65537 | 16419 ft | 389 kts | 303° |
| 2026-05-08 19:47 | 49.74195 | 9.62092 | 16088 ft | 387 kts | 303° |
| 2026-05-08 19:47 | 49.75719 | 9.58662 | 15800 ft | 386 kts | 303° |
| 2026-05-08 19:47 | 49.77232 | 9.55240 | 15475 ft | 384 kts | 303° |
| 2026-05-08 19:48 | 49.78737 | 9.51834 | 15161 ft | 383 kts | 303° |
| 2026-05-08 19:48 | 49.80237 | 9.48436 | 14844 ft | 382 kts | 303° |
| 2026-05-08 19:48 | 49.81734 | 9.45041 | 14521 ft | 380 kts | 303° |
| 2026-05-08 19:48 | 49.83218 | 9.41672 | 14224 ft | 378 kts | 303° |
| 2026-05-08 19:49 | 49.84692 | 9.38319 | 13905 ft | 376 kts | 303° |
| 2026-05-08 19:49 | 49.86058 | 9.34867 | 13566 ft | 374 kts | 295° |
| 2026-05-08 19:49 | 49.86948 | 9.31176 | 13314 ft | 355 kts | 286° |
| 2026-05-08 19:49 | 49.87635 | 9.27633 | 12971 ft | 331 kts | 285° |
| 2026-05-08 19:50 | 49.88262 | 9.24305 | 12703 ft | 316 kts | 285° |
| 2026-05-08 19:50 | 49.88878 | 9.21032 | 12453 ft | 317 kts | 285° |
| 2026-05-08 19:50 | 49.89497 | 9.17759 | 12201 ft | 314 kts | 285° |
| 2026-05-08 19:50 | 49.90113 | 9.14511 | 11952 ft | 314 kts | 285° |
| 2026-05-08 19:51 | 49.90728 | 9.11268 | 11685 ft | 312 kts | 285° |
| 2026-05-08 19:51 | 49.91340 | 9.08038 | 11434 ft | 312 kts | 285° |
| 2026-05-08 19:51 | 49.91938 | 9.04881 | 11215 ft | 306 kts | 285° |
| 2026-05-08 19:51 | 49.92542 | 9.01713 | 10951 ft | 301 kts | 285° |
| 2026-05-08 19:52 | 49.93125 | 8.98663 | 10578 ft | 293 kts | 285° |
| 2026-05-08 19:52 | 49.93694 | 8.95686 | 10181 ft | 284 kts | 285° |
| 2026-05-08 19:52 | 49.94252 | 8.92757 | 9752 ft | 281 kts | 285° |
| 2026-05-08 19:52 | 49.94804 | 8.89851 | 9344 ft | 279 kts | 285° |
| 2026-05-08 19:53 | 49.95353 | 8.86959 | 9136 ft | 280 kts | 285° |
| 2026-05-08 19:53 | 49.95904 | 8.84055 | 9102 ft | 279 kts | 285° |
| 2026-05-08 19:53 | 49.96450 | 8.81170 | 9104 ft | 278 kts | 285° |
| 2026-05-08 19:53 | 49.96988 | 8.78325 | 9067 ft | 269 kts | 285° |
| 2026-05-08 19:54 | 49.97507 | 8.75583 | 8923 ft | 259 kts | 285° |
| 2026-05-08 19:54 | 49.97915 | 8.72917 | 8752 ft | 250 kts | 276° |
| 2026-05-08 19:54 | 49.97841 | 8.70266 | 8506 ft | 244 kts | 256° |
| 2026-05-08 19:54 | 49.97346 | 8.67795 | 8251 ft | 241 kts | 250° |
| 2026-05-08 19:55 | 49.96756 | 8.65367 | 8111 ft | 240 kts | 249° |
| 2026-05-08 19:55 | 49.96159 | 8.62945 | 8101 ft | 240 kts | 249° |
| 2026-05-08 19:55 | 49.95566 | 8.60521 | 8101 ft | 240 kts | 249° |
| 2026-05-08 19:55 | 49.94976 | 8.58095 | 8102 ft | 240 kts | 249° |
| 2026-05-08 19:56 | 49.94389 | 8.55670 | 8102 ft | 240 kts | 249° |
| 2026-05-08 19:56 | 49.93802 | 8.53244 | 8027 ft | 241 kts | 250° |
| 2026-05-08 19:56 | 49.93210 | 8.50795 | 7674 ft | 244 kts | 250° |
| 2026-05-08 19:56 | 49.92612 | 8.48323 | 7365 ft | 245 kts | 250° |
| 2026-05-08 19:57 | 49.92021 | 8.45859 | 7067 ft | 242 kts | 250° |
| 2026-05-08 19:57 | 49.91432 | 8.43420 | 6773 ft | 240 kts | 250° |
| 2026-05-08 19:57 | 49.90847 | 8.41000 | 6471 ft | 238 kts | 250° |
| 2026-05-08 19:57 | 49.90268 | 8.38605 | 6164 ft | 236 kts | 250° |
| 2026-05-08 19:58 | 49.89694 | 8.36237 | 6008 ft | 234 kts | 249° |
| 2026-05-08 19:58 | 49.89117 | 8.33854 | 5996 ft | 235 kts | 249° |
| 2026-05-08 19:58 | 49.88543 | 8.31488 | 5995 ft | 234 kts | 249° |
| 2026-05-08 19:58 | 49.87973 | 8.29125 | 5995 ft | 234 kts | 250° |
| 2026-05-08 19:59 | 49.87407 | 8.26790 | 5998 ft | 234 kts | 249° |
| 2026-05-08 19:59 | 49.86832 | 8.24431 | 5999 ft | 234 kts | 249° |
| 2026-05-08 19:59 | 49.86255 | 8.22070 | 5934 ft | 234 kts | 249° |
| 2026-05-08 19:59 | 49.85679 | 8.19702 | 5647 ft | 233 kts | 250° |
| 2026-05-08 20:00 | 49.85109 | 8.17351 | 5350 ft | 233 kts | 249° |
| 2026-05-08 20:00 | 49.84528 | 8.14976 | 5043 ft | 237 kts | 249° |
| 2026-05-08 20:00 | 49.83940 | 8.12573 | 4734 ft | 239 kts | 249° |
| 2026-05-08 20:00 | 49.83349 | 8.10155 | 4412 ft | 241 kts | 249° |
| 2026-05-08 20:01 | 49.82758 | 8.07727 | 4131 ft | 241 kts | 249° |
| 2026-05-08 20:01 | 49.82167 | 8.05318 | 4004 ft | 238 kts | 248° |
| 2026-05-08 20:01 | 49.81576 | 8.02915 | 3994 ft | 239 kts | 249° |
| 2026-05-08 20:01 | 49.80984 | 8.00507 | 3995 ft | 239 kts | 248° |
| 2026-05-08 20:02 | 49.80390 | 7.98101 | 3994 ft | 239 kts | 248° |
| 2026-05-08 20:02 | 49.79997 | 7.96504 | 3995 ft | 239 kts | 249° |
| 2026-05-08 20:02 | 49.79220 | 7.93308 | 3995 ft | 239 kts | 251° |
| 2026-05-08 20:02 | 49.79059 | 7.90773 | 3995 ft | 239 kts | 281° |
| 2026-05-08 20:03 | 49.79743 | 7.88477 | 3996 ft | 236 kts | 312° |
| 2026-05-08 20:03 | 49.81058 | 7.87028 | 4000 ft | 233 kts | 338° |
| 2026-05-08 20:03 | 49.82066 | 7.86441 | 3991 ft | 233 kts | 347° |
| 2026-05-08 20:03 | 49.83656 | 7.86471 | 3997 ft | 229 kts | 19° |
| 2026-05-08 20:04 | 49.85024 | 7.87670 | 3999 ft | 227 kts | 39° |
| 2026-05-08 20:04 | 49.86226 | 7.89260 | 3997 ft | 228 kts | 43° |
| 2026-05-08 20:04 | 49.87402 | 7.90902 | 3997 ft | 228 kts | 43° |
| 2026-05-08 20:04 | 49.88540 | 7.92608 | 4001 ft | 227 kts | 48° |
| 2026-05-08 20:05 | 49.89671 | 7.94328 | 3997 ft | 227 kts | 50° |
| 2026-05-08 20:05 | 49.90347 | 7.96507 | 4005 ft | 225 kts | 78° |
| 2026-05-08 20:05 | 49.90524 | 7.98915 | 4002 ft | 225 kts | 87° |
| 2026-05-08 20:05 | 49.90585 | 8.01350 | 4002 ft | 226 kts | 88° |
| 2026-05-08 20:06 | 49.90717 | 8.03776 | 3997 ft | 226 kts | 77° |
| 2026-05-08 20:06 | 49.91205 | 8.06091 | 4003 ft | 226 kts | 66° |
| 2026-05-08 20:06 | 49.91866 | 8.08309 | 4000 ft | 227 kts | 66° |
| 2026-05-08 20:06 | 49.92483 | 8.10572 | 3994 ft | 228 kts | 69° |
| 2026-05-08 20:07 | 49.93040 | 8.12833 | 3988 ft | 219 kts | 70° |
| 2026-05-08 20:07 | 49.93556 | 8.14982 | 4012 ft | 206 kts | 70° |
| 2026-05-08 20:07 | 49.94048 | 8.17043 | 4027 ft | 202 kts | 70° |
| 2026-05-08 20:07 | 49.94530 | 8.19065 | 4013 ft | 202 kts | 70° |
| 2026-05-08 20:08 | 49.95017 | 8.21110 | 4009 ft | 201 kts | 70° |
| 2026-05-08 20:08 | 49.95481 | 8.23053 | 3994 ft | 182 kts | 70° |
| 2026-05-08 20:08 | 49.95910 | 8.24847 | 4002 ft | 175 kts | 70° |
| 2026-05-08 20:08 | 49.96334 | 8.26617 | 3973 ft | 175 kts | 70° |
| 2026-05-08 20:09 | 49.96760 | 8.28393 | 3786 ft | 175 kts | 70° |
| 2026-05-08 20:09 | 49.97184 | 8.30160 | 3524 ft | 174 kts | 70° |
| 2026-05-08 20:09 | 49.97603 | 8.31908 | 3265 ft | 171 kts | 70° |
| 2026-05-08 20:09 | 49.98017 | 8.33638 | 3028 ft | 170 kts | 70° |
| 2026-05-08 20:10 | 49.98427 | 8.35350 | 2799 ft | 168 kts | 70° |
| 2026-05-08 20:10 | 49.98831 | 8.37035 | 2568 ft | 164 kts | 70° |
| 2026-05-08 20:10 | 49.99229 | 8.38697 | 2354 ft | 165 kts | 70° |
| 2026-05-08 20:10 | 49.99629 | 8.40370 | 2125 ft | 165 kts | 70° |
| 2026-05-08 20:11 | 50.00025 | 8.42023 | 1898 ft | 159 kts | 70° |
| 2026-05-08 20:11 | 50.00391 | 8.43554 | 1685 ft | 143 kts | 70° |
| 2026-05-08 20:11 | 50.00726 | 8.44955 | 1471 ft | 136 kts | 69° |
| 2026-05-08 20:11 | 50.01052 | 8.46325 | 1310 ft | 135 kts | 69° |
| 2026-05-08 20:12 | 50.01376 | 8.47704 | 1135 ft | 136 kts | 69° |
| 2026-05-08 20:12 | 50.01698 | 8.49060 | 940 ft | 135 kts | 67° |
| 2026-05-08 20:12 | 50.02030 | 8.50446 | 778 ft | 135 kts | 68° |
| 2026-05-08 20:12 | 50.02368 | 8.51816 | 582 ft | 135 kts | 65° |
| 2026-05-08 20:13 | 50.02692 | 8.53154 | 412 ft | 133 kts | 67° |
| 2026-05-08 20:13 | 50.03006 | 8.54456 | 336 ft | 116 kts | 69° |
| 2026-05-08 20:13 | 50.03218 | 8.55352 | 356 ft | 54 kts | 70° |
| 2026-05-08 20:13 | 50.03307 | 8.55657 | 357 ft | 26 kts | 56° |
| 2026-05-08 20:14 | 50.03437 | 8.55858 | 359 ft | 26 kts | 39° |
| 2026-05-08 20:14 | 50.03544 | 8.56005 | 362 ft | 15 kts | 39° |
| 2026-05-08 20:14 | 50.03618 | 8.56099 | 365 ft | 12 kts | 43° |
| 2026-05-08 20:14 | 50.03669 | 8.56217 | 366 ft | 16 kts | 66° |
| 2026-05-08 20:15 | 50.03713 | 8.56393 | 364 ft | 18 kts | 70° |
| 2026-05-08 20:15 | 50.03758 | 8.56584 | 363 ft | 19 kts | 69° |
| 2026-05-08 20:15 | 50.03805 | 8.56780 | 362 ft | 20 kts | 70° |
| 2026-05-08 20:15 | 50.03853 | 8.56982 | 366 ft | 20 kts | 69° |
| 2026-05-08 20:16 | 50.03900 | 8.57177 | 369 ft | 18 kts | 69° |
| 2026-05-08 20:16 | 50.03943 | 8.57357 | 371 ft | 18 kts | 70° |
| 2026-05-08 20:16 | 50.03990 | 8.57560 | 371 ft | 21 kts | 70° |
| 2026-05-08 20:16 | 50.04041 | 8.57771 | 373 ft | 21 kts | 69° |
| 2026-05-08 20:17 | 50.04094 | 8.57985 | 375 ft | 22 kts | 68° |
| 2026-05-08 20:17 | 50.04168 | 8.58158 | 371 ft | 19 kts | 29° |
| 2026-05-08 20:17 | 50.04255 | 8.58212 | 371 ft | 9 kts | 6° |
| 2026-05-08 20:17 | 50.04293 | 8.58197 | 375 ft | 11 kts | 341° |
| 2026-05-08 20:18 | 50.04382 | 8.58147 | 372 ft | 14 kts | 338° |
| 2026-05-08 20:18 | 50.04483 | 8.58088 | 374 ft | 17 kts | 339° |
| 2026-05-08 20:18 | 50.04533 | 8.57979 | 374 ft | 14 kts | 258° |
| 2026-05-08 20:18 | 50.04499 | 8.57835 | 374 ft | 15 kts | 250° |
| 2026-05-08 20:19 | 50.04469 | 8.57708 | 373 ft | 9 kts | 249° |
| 2026-05-08 20:19 | 50.04445 | 8.57615 | 374 ft | 10 kts | 249° |
| 2026-05-08 20:19 | 50.04415 | 8.57487 | 365 ft | 15 kts | 250° |
| 2026-05-08 20:19 | 50.04378 | 8.57330 | 373 ft | 16 kts | 250° |
| 2026-05-08 20:20 | 50.04343 | 8.57185 | 369 ft | 14 kts | 249° |
| 2026-05-08 20:20 | 50.04310 | 8.57048 | 371 ft | 12 kts | 249° |
| 2026-05-08 20:20 | 50.04287 | 8.56953 | 367 ft | 9 kts | 249° |
| 2026-05-08 20:20 | 50.04279 | 8.56854 | 364 ft | 8 kts | 286° |
| 2026-05-08 20:21 | 50.04321 | 8.56823 | 372 ft | 6 kts | 2° |
| 2026-05-08 20:21 | 50.04356 | 8.56832 | 369 ft | 2 kts | 10° |
| 2026-05-08 20:23 | 50.04378 | 8.56838 | 369 ft | 8 kts | 10° |
| 2026-05-08 20:24 | 50.04449 | 8.56855 | 363 ft | 11 kts | 8° |
| 2026-05-08 20:24 | 50.04525 | 8.56887 | 367 ft | 10 kts | 31° |
| 2026-05-08 20:24 | 50.04563 | 8.56969 | 370 ft | 8 kts | 59° |
| 2026-05-08 20:24 | 50.04589 | 8.57036 | 369 ft | 5 kts | 59° |
| 2026-05-08 20:25 | 50.04595 | 8.57053 | 368 ft | 1 kts | 59° |
| 2026-05-08 20:25 | 50.04596 | 8.57055 | 368 ft | 0 kts | 59° |